UAL945 EDDF-KORD
Flight info
| Callsign | UAL945 |
|---|---|
| Flight time | N/A |
| Altitude | 36000 |
| Route | OBOKA Z28 DIBIR DCT BUDIP DCT GODOS DCT ROLUM DCT ASKAM DCT FORTY DCT PEMOS/M085F380 DCT 64N010W 66N020W 67N030W 67N040W 66N050W DCT CLAVY DCT KAGLY/N0489F380 DCT 60N072W/N0486F400 DCT GW DCT 50N082W DCT SSM |
| Aircraft | B789/H-SDE1E2E3FGHIJ2J3J4J5M1RWXY/LB1D1 |
Departure
| Time | 2026-04-18 07:39 |
|---|---|
| Airport | Frankfurt Main Airport (EDDF) |
Arrival
| Time | N/A |
|---|---|
| Airport | Chicago O'Hare International Airport (KORD) |
| Time | Latitude | Longitude | Altitude | Speed | Heading |
|---|---|---|---|---|---|
| 2026-04-18 07:07 | 50.04753 | 8.57460 | 351 ft | 0 kts | 50° |
| 2026-04-18 07:27 | 50.04752 | 8.57458 | 351 ft | 2 kts | 50° |
| 2026-04-18 07:27 | 50.04734 | 8.57429 | 361 ft | 4 kts | 40° |
| 2026-04-18 07:27 | 50.04712 | 8.57404 | 361 ft | 4 kts | 27° |
| 2026-04-18 07:28 | 50.04687 | 8.57389 | 361 ft | 3 kts | 14° |
| 2026-04-18 07:28 | 50.04661 | 8.57382 | 361 ft | 4 kts | 359° |
| 2026-04-18 07:28 | 50.04635 | 8.57387 | 361 ft | 4 kts | 338° |
| 2026-04-18 07:28 | 50.04617 | 8.57402 | 361 ft | 4 kts | 324° |
| 2026-04-18 07:29 | 50.04601 | 8.57430 | 361 ft | 4 kts | 280° |
| 2026-04-18 07:29 | 50.04603 | 8.57470 | 361 ft | 4 kts | 248° |
| 2026-04-18 07:29 | 50.04609 | 8.57492 | 361 ft | 6 kts | 251° |
| 2026-04-18 07:31 | 50.04608 | 8.57489 | 361 ft | 3 kts | 251° |
| 2026-04-18 07:31 | 50.04600 | 8.57453 | 361 ft | 6 kts | 250° |
| 2026-04-18 07:31 | 50.04587 | 8.57392 | 361 ft | 6 kts | 250° |
| 2026-04-18 07:32 | 50.04572 | 8.57328 | 356 ft | 7 kts | 250° |
| 2026-04-18 07:32 | 50.04552 | 8.57246 | 358 ft | 11 kts | 250° |
| 2026-04-18 07:32 | 50.04521 | 8.57112 | 356 ft | 15 kts | 250° |
| 2026-04-18 07:32 | 50.04480 | 8.56941 | 358 ft | 18 kts | 250° |
| 2026-04-18 07:33 | 50.04430 | 8.56737 | 360 ft | 22 kts | 248° |
| 2026-04-18 07:33 | 50.04374 | 8.56506 | 358 ft | 25 kts | 250° |
| 2026-04-18 07:33 | 50.04312 | 8.56242 | 360 ft | 27 kts | 250° |
| 2026-04-18 07:33 | 50.04243 | 8.55950 | 356 ft | 30 kts | 250° |
| 2026-04-18 07:34 | 50.04168 | 8.55635 | 361 ft | 32 kts | 250° |
| 2026-04-18 07:34 | 50.04086 | 8.55296 | 356 ft | 34 kts | 249° |
| 2026-04-18 07:34 | 50.04000 | 8.54940 | 358 ft | 36 kts | 249° |
| 2026-04-18 07:34 | 50.03909 | 8.54562 | 353 ft | 38 kts | 250° |
| 2026-04-18 07:35 | 50.03820 | 8.54327 | 353 ft | 10 kts | 184° |
| 2026-04-18 07:35 | 50.03763 | 8.54357 | 360 ft | 10 kts | 159° |
| 2026-04-18 07:35 | 50.03686 | 8.54374 | 354 ft | 11 kts | 207° |
| 2026-04-18 07:35 | 50.03645 | 8.54263 | 359 ft | 14 kts | 250° |
| 2026-04-18 07:36 | 50.03609 | 8.54105 | 353 ft | 17 kts | 250° |
| 2026-04-18 07:36 | 50.03563 | 8.53912 | 356 ft | 21 kts | 249° |
| 2026-04-18 07:36 | 50.03508 | 8.53685 | 360 ft | 24 kts | 249° |
| 2026-04-18 07:36 | 50.03450 | 8.53446 | 355 ft | 20 kts | 250° |
| 2026-04-18 07:37 | 50.03420 | 8.53348 | 359 ft | 14 kts | 229° |
| 2026-04-18 07:37 | 50.03338 | 8.53375 | 355 ft | 9 kts | 130° |
| 2026-04-18 07:37 | 50.03309 | 8.53448 | 361 ft | 7 kts | 123° |
| 2026-04-18 07:37 | 50.03292 | 8.53487 | 359 ft | 7 kts | 123° |
| 2026-04-18 07:38 | 50.03283 | 8.53544 | 356 ft | 4 kts | 84° |
| 2026-04-18 07:38 | 50.03289 | 8.53576 | 356 ft | 8 kts | 71° |
| 2026-04-18 07:38 | 50.03329 | 8.53751 | 355 ft | 29 kts | 69° |
| 2026-04-18 07:38 | 50.03534 | 8.54604 | 358 ft | 99 kts | 70° |
| 2026-04-18 07:39 | 50.03720 | 8.55378 | 359 ft | 131 kts | 69° |
| 2026-04-18 07:39 | 50.04088 | 8.56917 | 361 ft | 171 kts | 69° |
| 2026-04-18 07:39 | 50.04522 | 8.58705 | 832 ft | 172 kts | 66° |
| 2026-04-18 07:39 | 50.04921 | 8.60532 | 1397 ft | 187 kts | 72° |
| 2026-04-18 07:40 | 50.05343 | 8.62460 | 2087 ft | 190 kts | 69° |
| 2026-04-18 07:40 | 50.05815 | 8.64516 | 2375 ft | 215 kts | 70° |
| 2026-04-18 07:40 | 50.06333 | 8.66821 | 2862 ft | 229 kts | 71° |
| 2026-04-18 07:40 | 50.06853 | 8.69165 | 3608 ft | 230 kts | 70° |
| 2026-04-18 07:41 | 50.07743 | 8.71225 | 4202 ft | 238 kts | 39° |
| 2026-04-18 07:41 | 50.09264 | 8.72542 | 4453 ft | 262 kts | 24° |
| 2026-04-18 07:41 | 50.11010 | 8.73638 | 4919 ft | 274 kts | 21° |
| 2026-04-18 07:41 | 50.12776 | 8.74755 | 5818 ft | 275 kts | 23° |
| 2026-04-18 07:42 | 50.14536 | 8.75956 | 6610 ft | 279 kts | 24° |
| 2026-04-18 07:42 | 50.16323 | 8.77190 | 7377 ft | 282 kts | 23° |
| 2026-04-18 07:42 | 50.18131 | 8.78416 | 8151 ft | 285 kts | 22° |
| 2026-04-18 07:42 | 50.19931 | 8.79630 | 8889 ft | 287 kts | 22° |
| 2026-04-18 07:43 | 50.21779 | 8.80882 | 9648 ft | 290 kts | 22° |
| 2026-04-18 07:43 | 50.23641 | 8.82109 | 10248 ft | 297 kts | 18° |
| 2026-04-18 07:43 | 50.25756 | 8.82324 | 10311 ft | 318 kts | 347° |
| 2026-04-18 07:43 | 50.27821 | 8.80887 | 10419 ft | 337 kts | 320° |
| 2026-04-18 07:44 | 50.29350 | 8.78033 | 10558 ft | 354 kts | 297° |
| 2026-04-18 07:44 | 50.30233 | 8.74396 | 11074 ft | 358 kts | 285° |
| 2026-04-18 07:44 | 50.30850 | 8.70625 | 11751 ft | 360 kts | 283° |
| 2026-04-18 07:44 | 50.31510 | 8.66828 | 12385 ft | 363 kts | 287° |
| 2026-04-18 07:45 | 50.32358 | 8.63088 | 12995 ft | 366 kts | 290° |
| 2026-04-18 07:45 | 50.33252 | 8.59344 | 13620 ft | 368 kts | 289° |
| 2026-04-18 07:45 | 50.34077 | 8.55546 | 14229 ft | 370 kts | 288° |
| 2026-04-18 07:45 | 50.34880 | 8.51701 | 14761 ft | 373 kts | 288° |
| 2026-04-18 07:46 | 50.35714 | 8.47842 | 15275 ft | 375 kts | 288° |
| 2026-04-18 07:46 | 50.36555 | 8.44017 | 15793 ft | 378 kts | 288° |
| 2026-04-18 07:46 | 50.37371 | 8.40079 | 16288 ft | 380 kts | 283° |
| 2026-04-18 07:46 | 50.37621 | 8.35951 | 16756 ft | 383 kts | 269° |
| 2026-04-18 07:47 | 50.37207 | 8.31820 | 17250 ft | 386 kts | 255° |
| 2026-04-18 07:47 | 50.36422 | 8.27778 | 17696 ft | 389 kts | 253° |
| 2026-04-18 07:47 | 50.35606 | 8.23742 | 18196 ft | 392 kts | 253° |
| 2026-04-18 07:47 | 50.34774 | 8.19652 | 18646 ft | 394 kts | 253° |
| 2026-04-18 07:48 | 50.33955 | 8.15551 | 19062 ft | 396 kts | 253° |
| 2026-04-18 07:48 | 50.33132 | 8.11417 | 19463 ft | 398 kts | 253° |
| 2026-04-18 07:48 | 50.32297 | 8.07267 | 19855 ft | 401 kts | 253° |
| 2026-04-18 07:48 | 50.31453 | 8.03099 | 20240 ft | 403 kts | 253° |
| 2026-04-18 07:49 | 50.30607 | 7.98911 | 20629 ft | 404 kts | 254° |
| 2026-04-18 07:49 | 50.30050 | 7.94604 | 20958 ft | 405 kts | 265° |
| 2026-04-18 07:49 | 50.30064 | 7.90196 | 21309 ft | 407 kts | 276° |
| 2026-04-18 07:49 | 50.30661 | 7.85856 | 21661 ft | 410 kts | 288° |
| 2026-04-18 07:50 | 50.31763 | 7.81734 | 21952 ft | 413 kts | 293° |
| 2026-04-18 07:50 | 50.32943 | 7.77622 | 22290 ft | 415 kts | 293° |
| 2026-04-18 07:50 | 50.34152 | 7.73510 | 22606 ft | 417 kts | 296° |
| 2026-04-18 07:50 | 50.35745 | 7.69693 | 22888 ft | 421 kts | 307° |
| 2026-04-18 07:51 | 50.37794 | 7.66408 | 23198 ft | 426 kts | 318° |
| 2026-04-18 07:51 | 50.40261 | 7.63776 | 23497 ft | 431 kts | 329° |
| 2026-04-18 07:51 | 50.43000 | 7.61800 | 23726 ft | 436 kts | 333° |
| 2026-04-18 07:51 | 50.45738 | 7.59899 | 23983 ft | 437 kts | 333° |
| 2026-04-18 07:52 | 50.48532 | 7.57985 | 24213 ft | 439 kts | 333° |
| 2026-04-18 07:52 | 50.51335 | 7.56059 | 24419 ft | 441 kts | 333° |
| 2026-04-18 07:52 | 50.54146 | 7.54112 | 24667 ft | 442 kts | 333° |
| 2026-04-18 07:52 | 50.56863 | 7.51889 | 24840 ft | 439 kts | 323° |
| 2026-04-18 07:53 | 50.59421 | 7.49241 | 25032 ft | 441 kts | 324° |
| 2026-04-18 07:53 | 50.62009 | 7.46624 | 25246 ft | 442 kts | 324° |
| 2026-04-18 07:53 | 50.64594 | 7.43990 | 25467 ft | 444 kts | 323° |
| 2026-04-18 07:53 | 50.67173 | 7.41330 | 25690 ft | 445 kts | 323° |
| 2026-04-18 07:54 | 50.69782 | 7.38640 | 25895 ft | 447 kts | 323° |
| 2026-04-18 07:54 | 50.72385 | 7.35950 | 26105 ft | 447 kts | 321° |
| 2026-04-18 07:54 | 50.74723 | 7.32757 | 26279 ft | 444 kts | 310° |
| 2026-04-18 07:54 | 50.76619 | 7.29037 | 26486 ft | 441 kts | 302° |
| 2026-04-18 07:55 | 50.78405 | 7.25075 | 26648 ft | 443 kts | 302° |
| 2026-04-18 07:55 | 50.80183 | 7.21089 | 26886 ft | 444 kts | 302° |
| 2026-04-18 07:55 | 50.81960 | 7.17083 | 27088 ft | 445 kts | 302° |
| 2026-04-18 07:55 | 50.83744 | 7.13074 | 27301 ft | 447 kts | 302° |
| 2026-04-18 07:56 | 50.85537 | 7.09052 | 27500 ft | 448 kts | 302° |
| 2026-04-18 07:56 | 50.87334 | 7.05005 | 27716 ft | 449 kts | 302° |
| 2026-04-18 07:56 | 50.89152 | 7.00896 | 27927 ft | 451 kts | 302° |
| 2026-04-18 07:56 | 50.90925 | 6.96887 | 28123 ft | 452 kts | 302° |
| 2026-04-18 07:57 | 50.92737 | 6.92796 | 28330 ft | 453 kts | 302° |
| 2026-04-18 07:57 | 50.94551 | 6.88692 | 28542 ft | 455 kts | 302° |
| 2026-04-18 07:57 | 50.96368 | 6.84570 | 28755 ft | 456 kts | 302° |
| 2026-04-18 07:57 | 50.98185 | 6.80439 | 28962 ft | 457 kts | 302° |
| 2026-04-18 07:58 | 51.01839 | 6.72121 | 29379 ft | 460 kts | 301° |
| 2026-04-18 07:58 | 51.03669 | 6.67943 | 29577 ft | 462 kts | 301° |
| 2026-04-18 07:58 | 51.05505 | 6.63745 | 29793 ft | 463 kts | 301° |
| 2026-04-18 07:59 | 51.07343 | 6.59538 | 30012 ft | 464 kts | 301° |
| 2026-04-18 07:59 | 51.09186 | 6.55311 | 30205 ft | 466 kts | 301° |
| 2026-04-18 07:59 | 51.11035 | 6.51059 | 30382 ft | 467 kts | 301° |
| 2026-04-18 07:59 | 51.12863 | 6.46850 | 30572 ft | 469 kts | 301° |
| 2026-04-18 08:00 | 51.14716 | 6.42576 | 30745 ft | 470 kts | 300° |
| 2026-04-18 08:00 | 51.16573 | 6.38288 | 30913 ft | 471 kts | 300° |
| 2026-04-18 08:00 | 51.18436 | 6.33977 | 31097 ft | 472 kts | 300° |
| 2026-04-18 08:00 | 51.20299 | 6.29660 | 31269 ft | 474 kts | 300° |
| 2026-04-18 08:01 | 51.22170 | 6.25316 | 31459 ft | 475 kts | 300° |
| 2026-04-18 08:01 | 51.24040 | 6.20969 | 31642 ft | 476 kts | 300° |
| 2026-04-18 08:01 | 51.25912 | 6.16607 | 31820 ft | 476 kts | 300° |
| 2026-04-18 08:01 | 51.27777 | 6.12249 | 32093 ft | 475 kts | 298° |
| 2026-04-18 08:02 | 51.29566 | 6.07818 | 32296 ft | 474 kts | 298° |
| 2026-04-18 08:02 | 51.31386 | 6.03432 | 32563 ft | 474 kts | 299° |
| 2026-04-18 08:02 | 51.33207 | 5.99043 | 32811 ft | 473 kts | 298° |
| 2026-04-18 08:02 | 51.35000 | 5.94635 | 33078 ft | 473 kts | 298° |
| 2026-04-18 08:03 | 51.36824 | 5.90252 | 33318 ft | 475 kts | 303° |
| 2026-04-18 08:03 | 51.39041 | 5.86285 | 33596 ft | 482 kts | 312° |
| 2026-04-18 08:03 | 51.41633 | 5.82844 | 33864 ft | 486 kts | 316° |
| 2026-04-18 08:03 | 51.44309 | 5.79508 | 34069 ft | 486 kts | 316° |
| 2026-04-18 08:04 | 51.46982 | 5.76198 | 34301 ft | 486 kts | 316° |
| 2026-04-18 08:04 | 51.49659 | 5.72877 | 34499 ft | 486 kts | 316° |
| 2026-04-18 08:04 | 51.52329 | 5.69547 | 34737 ft | 486 kts | 316° |
| 2026-04-18 08:04 | 51.54959 | 5.66256 | 34985 ft | 485 kts | 316° |
| 2026-04-18 08:05 | 51.57654 | 5.62888 | 35212 ft | 485 kts | 316° |
| 2026-04-18 08:05 | 51.60281 | 5.59604 | 35426 ft | 484 kts | 316° |
| 2026-04-18 08:05 | 51.62936 | 5.56274 | 35647 ft | 484 kts | 316° |
| 2026-04-18 08:05 | 51.65587 | 5.52943 | 35857 ft | 483 kts | 316° |
| 2026-04-18 08:06 | 51.68238 | 5.49609 | 36079 ft | 483 kts | 316° |
| 2026-04-18 08:06 | 51.70881 | 5.46281 | 36213 ft | 484 kts | 316° |
| 2026-04-18 08:06 | 51.73554 | 5.42907 | 36192 ft | 486 kts | 316° |
| 2026-04-18 08:07 | 51.78860 | 5.36202 | 36190 ft | 482 kts | 316° |
| 2026-04-18 08:07 | 51.84123 | 5.29522 | 36196 ft | 481 kts | 316° |
| 2026-04-18 08:08 | 51.89384 | 5.22831 | 36204 ft | 481 kts | 315° |
| 2026-04-18 08:08 | 51.94641 | 5.16122 | 36208 ft | 481 kts | 315° |
| 2026-04-18 08:09 | 51.99868 | 5.09430 | 36212 ft | 482 kts | 315° |
| 2026-04-18 08:09 | 52.05130 | 5.02673 | 36209 ft | 482 kts | 315° |
| 2026-04-18 08:10 | 52.10394 | 4.95893 | 36206 ft | 483 kts | 315° |
| 2026-04-18 08:10 | 52.15671 | 4.89077 | 36201 ft | 484 kts | 315° |
| 2026-04-18 08:11 | 52.20936 | 4.82254 | 36181 ft | 483 kts | 315° |
| 2026-04-18 08:11 | 52.26173 | 4.75445 | 36190 ft | 480 kts | 315° |
| 2026-04-18 08:12 | 52.31404 | 4.68622 | 36195 ft | 481 kts | 315° |
| 2026-04-18 08:12 | 52.36614 | 4.61806 | 36194 ft | 483 kts | 315° |
| 2026-04-18 08:13 | 52.41888 | 4.54887 | 36197 ft | 482 kts | 315° |
| 2026-04-18 08:13 | 52.47082 | 4.48048 | 36197 ft | 482 kts | 315° |
| 2026-04-18 08:14 | 52.52298 | 4.41161 | 36201 ft | 481 kts | 315° |
| 2026-04-18 08:14 | 52.57515 | 4.34249 | 36194 ft | 482 kts | 315° |
| 2026-04-18 08:15 | 52.62749 | 4.27295 | 36195 ft | 483 kts | 315° |
| 2026-04-18 08:15 | 52.67974 | 4.20329 | 36194 ft | 483 kts | 315° |
| 2026-04-18 08:16 | 52.73164 | 4.13388 | 36192 ft | 483 kts | 315° |
| 2026-04-18 08:16 | 52.78375 | 4.06398 | 36182 ft | 482 kts | 314° |
| 2026-04-18 08:17 | 52.83596 | 3.99369 | 36190 ft | 483 kts | 314° |
| 2026-04-18 08:17 | 52.88805 | 3.92339 | 36194 ft | 484 kts | 314° |
| 2026-04-18 08:18 | 52.94026 | 3.85266 | 36189 ft | 484 kts | 314° |
| 2026-04-18 08:18 | 52.99235 | 3.78188 | 36194 ft | 484 kts | 314° |
| 2026-04-18 08:19 | 53.04440 | 3.71092 | 36196 ft | 484 kts | 314° |
| 2026-04-18 08:19 | 53.09620 | 3.64007 | 36189 ft | 486 kts | 314° |
| 2026-04-18 08:20 | 53.14841 | 3.56844 | 36195 ft | 486 kts | 314° |
| 2026-04-18 08:20 | 53.20063 | 3.49663 | 36193 ft | 487 kts | 316° |
| 2026-04-18 08:21 | 53.26065 | 3.44120 | 36198 ft | 505 kts | 336° |
| 2026-04-18 08:21 | 53.29487 | 3.42643 | 36200 ft | 513 kts | 347° |
| 2026-04-18 08:21 | 53.33057 | 3.42058 | 36189 ft | 516 kts | 351° |
| 2026-04-18 08:22 | 53.40216 | 3.41246 | 36179 ft | 514 kts | 352° |
| 2026-04-18 08:22 | 53.47351 | 3.40453 | 36181 ft | 512 kts | 351° |
| 2026-04-18 08:23 | 53.54426 | 3.39643 | 36181 ft | 513 kts | 351° |
| 2026-04-18 08:23 | 53.61578 | 3.38839 | 36172 ft | 515 kts | 351° |
| 2026-04-18 08:24 | 53.68746 | 3.38018 | 36183 ft | 516 kts | 352° |
| 2026-04-18 08:24 | 53.75908 | 3.37204 | 36176 ft | 516 kts | 352° |
| 2026-04-18 08:25 | 53.83072 | 3.36381 | 36175 ft | 516 kts | 352° |
| 2026-04-18 08:25 | 53.90186 | 3.35564 | 36169 ft | 515 kts | 352° |
| 2026-04-18 08:26 | 53.97345 | 3.34738 | 36161 ft | 515 kts | 352° |
| 2026-04-18 08:26 | 54.03280 | 3.34051 | 36163 ft | 514 kts | 352° |
| 2026-04-18 08:27 | 54.11626 | 3.33082 | 36157 ft | 514 kts | 352° |
| 2026-04-18 08:27 | 54.17561 | 3.32390 | 36159 ft | 514 kts | 352° |
| 2026-04-18 08:28 | 54.25878 | 3.31417 | 36149 ft | 516 kts | 352° |
| 2026-04-18 08:28 | 54.31888 | 3.30712 | 36154 ft | 517 kts | 352° |
| 2026-04-18 08:29 | 54.39076 | 3.29871 | 36150 ft | 517 kts | 352° |
| 2026-04-18 08:29 | 54.46215 | 3.29031 | 36152 ft | 517 kts | 352° |
| 2026-04-18 08:30 | 54.53384 | 3.28184 | 36139 ft | 516 kts | 352° |
| 2026-04-18 08:30 | 54.60547 | 3.27336 | 36145 ft | 515 kts | 352° |
| 2026-04-18 08:31 | 54.67705 | 3.26485 | 36141 ft | 515 kts | 352° |
| 2026-04-18 08:31 | 54.74857 | 3.25632 | 36138 ft | 515 kts | 352° |
| 2026-04-18 08:32 | 54.82022 | 3.24773 | 36138 ft | 517 kts | 352° |
| 2026-04-18 08:32 | 54.89206 | 3.23911 | 36135 ft | 517 kts | 352° |
| 2026-04-18 08:33 | 54.96309 | 3.22447 | 36154 ft | 509 kts | 339° |
| 2026-04-18 08:33 | 55.02766 | 3.17851 | 36131 ft | 504 kts | 330° |
| 2026-04-18 08:34 | 55.09128 | 3.12652 | 36132 ft | 505 kts | 330° |
| 2026-04-18 08:34 | 55.15497 | 3.07473 | 36131 ft | 505 kts | 330° |
| 2026-04-18 08:35 | 55.21861 | 3.02258 | 36125 ft | 504 kts | 330° |
| 2026-04-18 08:35 | 55.28214 | 2.97043 | 36118 ft | 504 kts | 330° |
| 2026-04-18 08:36 | 55.34559 | 2.91812 | 36112 ft | 504 kts | 330° |
| 2026-04-18 08:36 | 55.40921 | 2.86550 | 36114 ft | 506 kts | 330° |
| 2026-04-18 08:37 | 55.47310 | 2.81246 | 36116 ft | 506 kts | 330° |
| 2026-04-18 08:37 | 55.53686 | 2.75935 | 36113 ft | 507 kts | 330° |
| 2026-04-18 08:38 | 55.60022 | 2.70637 | 36112 ft | 507 kts | 330° |
| 2026-04-18 08:38 | 55.66395 | 2.65289 | 36114 ft | 506 kts | 330° |
| 2026-04-18 08:39 | 55.72764 | 2.59925 | 36108 ft | 506 kts | 330° |
| 2026-04-18 08:39 | 55.79125 | 2.54548 | 36106 ft | 506 kts | 330° |
| 2026-04-18 08:40 | 55.85447 | 2.49185 | 36099 ft | 506 kts | 330° |
| 2026-04-18 08:40 | 55.91802 | 2.43775 | 36100 ft | 506 kts | 330° |
| 2026-04-18 08:41 | 55.98170 | 2.38333 | 36104 ft | 506 kts | 330° |
| 2026-04-18 08:41 | 56.04521 | 2.32886 | 36098 ft | 506 kts | 330° |
| 2026-04-18 08:42 | 56.10868 | 2.27423 | 36090 ft | 506 kts | 330° |
| 2026-04-18 08:42 | 56.17185 | 2.21964 | 36085 ft | 508 kts | 330° |
| 2026-04-18 08:43 | 56.23565 | 2.16431 | 36080 ft | 510 kts | 330° |
| 2026-04-18 08:43 | 56.29955 | 2.10871 | 36079 ft | 509 kts | 330° |
| 2026-04-18 08:44 | 56.36323 | 2.05307 | 36082 ft | 508 kts | 330° |
| 2026-04-18 08:44 | 56.42676 | 1.99735 | 36079 ft | 508 kts | 330° |
| 2026-04-18 08:45 | 56.49042 | 1.94132 | 36080 ft | 509 kts | 330° |
| 2026-04-18 08:45 | 56.55414 | 1.88502 | 36073 ft | 509 kts | 330° |
| 2026-04-18 08:46 | 56.61786 | 1.82851 | 36068 ft | 510 kts | 330° |
| 2026-04-18 08:46 | 56.68125 | 1.77208 | 36068 ft | 510 kts | 330° |
| 2026-04-18 08:47 | 56.74499 | 1.71513 | 36063 ft | 510 kts | 330° |
| 2026-04-18 08:47 | 56.80875 | 1.65794 | 36063 ft | 510 kts | 330° |
| 2026-04-18 08:48 | 56.87236 | 1.60066 | 36060 ft | 510 kts | 330° |
| 2026-04-18 08:48 | 56.93566 | 1.54345 | 36053 ft | 509 kts | 330° |
| 2026-04-18 08:49 | 56.99920 | 1.48580 | 36052 ft | 509 kts | 330° |
| 2026-04-18 08:49 | 57.06269 | 1.42797 | 36038 ft | 509 kts | 330° |
| 2026-04-18 08:50 | 57.12606 | 1.37003 | 36039 ft | 508 kts | 330° |
| 2026-04-18 08:50 | 57.18948 | 1.31182 | 36041 ft | 508 kts | 330° |
| 2026-04-18 08:51 | 57.25265 | 1.25362 | 36052 ft | 507 kts | 330° |
| 2026-04-18 08:51 | 57.31585 | 1.19517 | 36035 ft | 507 kts | 330° |
| 2026-04-18 08:52 | 57.37854 | 1.13696 | 36032 ft | 507 kts | 330° |
| 2026-04-18 08:52 | 57.44185 | 1.07795 | 36028 ft | 509 kts | 330° |
| 2026-04-18 08:53 | 57.50529 | 1.01859 | 36026 ft | 511 kts | 330° |
| 2026-04-18 08:53 | 57.56882 | 0.95891 | 36022 ft | 511 kts | 330° |
| 2026-04-18 08:54 | 57.63227 | 0.89906 | 36012 ft | 510 kts | 330° |
| 2026-04-18 08:54 | 57.69521 | 0.83948 | 36011 ft | 510 kts | 330° |
| 2026-04-18 08:55 | 57.75849 | 0.77932 | 36009 ft | 510 kts | 330° |
| 2026-04-18 08:55 | 57.82186 | 0.71885 | 36005 ft | 511 kts | 330° |
| 2026-04-18 08:56 | 57.88538 | 0.65800 | 36002 ft | 512 kts | 330° |
| 2026-04-18 08:56 | 57.94873 | 0.59626 | 35999 ft | 511 kts | 324° |
| 2026-04-18 08:57 | 58.03554 | 0.48070 | 35993 ft | 508 kts | 321° |
| 2026-04-18 08:57 | 58.09285 | 0.40313 | 35986 ft | 506 kts | 321° |
| 2026-04-18 08:58 | 58.14995 | 0.32555 | 35979 ft | 506 kts | 321° |
| 2026-04-18 08:58 | 58.20721 | 0.24743 | 35976 ft | 507 kts | 321° |
| 2026-04-18 08:59 | 58.26451 | 0.16894 | 35952 ft | 508 kts | 321° |
| 2026-04-18 08:59 | 58.32170 | 0.09029 | 35957 ft | 506 kts | 321° |
| 2026-04-18 09:00 | 58.37869 | 0.01158 | 35958 ft | 505 kts | 321° |
| 2026-04-18 09:00 | 58.43547 | -0.06714 | 35957 ft | 504 kts | 321° |
| 2026-04-18 09:01 | 58.49181 | -0.14560 | 35951 ft | 505 kts | 321° |
| 2026-04-18 09:01 | 58.54859 | -0.22498 | 35944 ft | 506 kts | 321° |
| 2026-04-18 09:02 | 58.60535 | -0.30464 | 35940 ft | 506 kts | 321° |
| 2026-04-18 09:02 | 58.66186 | -0.38428 | 35935 ft | 505 kts | 321° |
| 2026-04-18 09:03 | 58.71837 | -0.46426 | 35928 ft | 504 kts | 321° |
| 2026-04-18 09:03 | 58.77473 | -0.54436 | 35920 ft | 503 kts | 321° |
| 2026-04-18 09:04 | 58.83103 | -0.62471 | 35914 ft | 501 kts | 321° |
| 2026-04-18 09:04 | 58.88703 | -0.70495 | 35916 ft | 500 kts | 321° |
| 2026-04-18 09:05 | 58.94301 | -0.78550 | 35912 ft | 502 kts | 321° |
| 2026-04-18 09:05 | 58.99897 | -0.86635 | 35905 ft | 503 kts | 320° |
| 2026-04-18 09:06 | 59.05472 | -0.94724 | 35901 ft | 503 kts | 320° |
| 2026-04-18 09:06 | 59.11068 | -1.02877 | 35883 ft | 502 kts | 320° |
| 2026-04-18 09:07 | 59.16658 | -1.11054 | 35878 ft | 501 kts | 320° |
| 2026-04-18 09:07 | 59.22238 | -1.19251 | 35875 ft | 500 kts | 320° |
| 2026-04-18 09:08 | 59.27793 | -1.27448 | 35874 ft | 501 kts | 320° |
| 2026-04-18 09:08 | 59.33355 | -1.35688 | 35872 ft | 502 kts | 320° |
| 2026-04-18 09:09 | 59.38884 | -1.43914 | 35865 ft | 502 kts | 320° |
| 2026-04-18 09:09 | 59.44445 | -1.52222 | 35862 ft | 502 kts | 320° |
| 2026-04-18 09:10 | 59.49991 | -1.60542 | 35853 ft | 501 kts | 320° |
| 2026-04-18 09:10 | 59.55533 | -1.68895 | 35849 ft | 502 kts | 320° |
| 2026-04-18 09:11 | 59.61080 | -1.77287 | 35842 ft | 502 kts | 320° |
| 2026-04-18 09:11 | 59.66610 | -1.85690 | 35837 ft | 501 kts | 320° |
| 2026-04-18 09:12 | 59.72105 | -1.94076 | 35829 ft | 501 kts | 320° |
| 2026-04-18 09:12 | 59.77621 | -2.02531 | 35827 ft | 501 kts | 320° |
| 2026-04-18 09:13 | 59.83128 | -2.11008 | 35823 ft | 501 kts | 320° |
| 2026-04-18 09:13 | 59.88633 | -2.19516 | 35812 ft | 502 kts | 320° |
| 2026-04-18 09:14 | 59.94107 | -2.28015 | 35805 ft | 504 kts | 320° |
| 2026-04-18 09:14 | 59.98708 | -2.35186 | 35800 ft | 504 kts | 319° |
| 2026-04-18 09:15 | 60.04223 | -2.43818 | 35790 ft | 502 kts | 319° |
| 2026-04-18 09:15 | 60.09716 | -2.52451 | 35781 ft | 501 kts | 319° |
| 2026-04-18 09:16 | 60.15199 | -2.61104 | 35778 ft | 501 kts | 319° |
| 2026-04-18 09:16 | 60.20688 | -2.69811 | 35774 ft | 503 kts | 319° |
| 2026-04-18 09:17 | 60.26142 | -2.78497 | 35763 ft | 503 kts | 319° |
| 2026-04-18 09:17 | 60.31654 | -2.87312 | 35761 ft | 504 kts | 319° |
| 2026-04-18 09:18 | 60.37134 | -2.96113 | 35756 ft | 504 kts | 319° |
| 2026-04-18 09:18 | 60.42619 | -3.04970 | 35748 ft | 504 kts | 319° |
| 2026-04-18 09:19 | 60.48061 | -3.13788 | 35744 ft | 504 kts | 319° |
| 2026-04-18 09:19 | 60.53535 | -3.22699 | 35735 ft | 503 kts | 319° |
| 2026-04-18 09:20 | 60.58980 | -3.31606 | 35729 ft | 502 kts | 319° |
| 2026-04-18 09:20 | 60.64423 | -3.40549 | 35711 ft | 500 kts | 319° |
| 2026-04-18 09:21 | 60.69830 | -3.49469 | 35704 ft | 501 kts | 319° |
| 2026-04-18 09:21 | 60.75216 | -3.58398 | 35707 ft | 502 kts | 319° |
| 2026-04-18 09:22 | 60.80647 | -3.67438 | 35699 ft | 503 kts | 319° |
| 2026-04-18 09:22 | 60.86073 | -3.76515 | 35703 ft | 502 kts | 319° |
| 2026-04-18 09:23 | 60.91478 | -3.85592 | 35696 ft | 501 kts | 319° |
| 2026-04-18 09:23 | 60.96859 | -3.94674 | 35695 ft | 500 kts | 318° |
| 2026-04-18 09:24 | 61.02053 | -4.03504 | 35690 ft | 500 kts | 318° |
| 2026-04-18 09:24 | 61.07316 | -4.12767 | 35774 ft | 503 kts | 317° |
| 2026-04-18 09:25 | 61.09991 | -4.17435 | 36014 ft | 502 kts | 318° |
| 2026-04-18 09:25 | 61.12662 | -4.22084 | 36227 ft | 502 kts | 317° |
| 2026-04-18 09:25 | 61.15329 | -4.26772 | 36443 ft | 503 kts | 317° |
| 2026-04-18 09:25 | 61.17987 | -4.31473 | 36656 ft | 503 kts | 317° |
| 2026-04-18 09:26 | 61.20646 | -4.36169 | 36870 ft | 503 kts | 317° |
| 2026-04-18 09:26 | 61.23311 | -4.40873 | 37078 ft | 503 kts | 317° |
| 2026-04-18 09:26 | 61.25979 | -4.45602 | 37282 ft | 503 kts | 317° |
| 2026-04-18 09:26 | 61.28638 | -4.50335 | 37490 ft | 503 kts | 317° |
| 2026-04-18 09:27 | 61.31298 | -4.55076 | 37662 ft | 504 kts | 317° |
| 2026-04-18 09:27 | 61.33973 | -4.59851 | 37658 ft | 508 kts | 317° |
| 2026-04-18 09:27 | 61.39315 | -4.69421 | 37651 ft | 504 kts | 317° |
| 2026-04-18 09:28 | 61.44609 | -4.78955 | 37642 ft | 502 kts | 317° |
| 2026-04-18 09:28 | 61.49860 | -4.88454 | 37642 ft | 502 kts | 317° |
| 2026-04-18 09:29 | 61.55148 | -4.98064 | 37637 ft | 503 kts | 317° |
| 2026-04-18 09:29 | 61.60429 | -5.07705 | 37638 ft | 503 kts | 317° |
| 2026-04-18 09:30 | 61.65712 | -5.17397 | 37642 ft | 504 kts | 317° |
| 2026-04-18 09:30 | 61.70992 | -5.27129 | 37645 ft | 505 kts | 317° |
| 2026-04-18 09:31 | 61.76237 | -5.36842 | 37644 ft | 504 kts | 317° |
| 2026-04-18 09:31 | 61.81487 | -5.46610 | 37644 ft | 502 kts | 317° |
| 2026-04-18 09:32 | 61.86725 | -5.56402 | 37645 ft | 501 kts | 317° |
| 2026-04-18 09:32 | 61.91946 | -5.66209 | 37636 ft | 501 kts | 317° |
| 2026-04-18 09:33 | 61.97170 | -5.76068 | 37642 ft | 502 kts | 317° |
| 2026-04-18 09:33 | 62.02358 | -5.85907 | 37641 ft | 503 kts | 317° |
| 2026-04-18 09:34 | 62.07590 | -5.95875 | 37643 ft | 504 kts | 316° |
| 2026-04-18 09:34 | 62.12818 | -6.05884 | 37643 ft | 504 kts | 316° |
| 2026-04-18 09:35 | 62.18024 | -6.15902 | 37642 ft | 503 kts | 316° |
| 2026-04-18 09:35 | 62.23218 | -6.25942 | 37639 ft | 502 kts | 316° |
| 2026-04-18 09:36 | 62.28355 | -6.35920 | 37639 ft | 501 kts | 316° |
| 2026-04-18 09:36 | 62.33517 | -6.45997 | 37640 ft | 502 kts | 316° |
| 2026-04-18 09:37 | 62.38689 | -6.56141 | 37641 ft | 503 kts | 316° |
| 2026-04-18 09:37 | 62.43875 | -6.66362 | 37639 ft | 504 kts | 316° |
| 2026-04-18 09:38 | 62.49020 | -6.76555 | 37645 ft | 505 kts | 316° |
| 2026-04-18 09:38 | 62.54192 | -6.86849 | 37641 ft | 504 kts | 316° |
| 2026-04-18 09:39 | 62.59339 | -6.97145 | 37638 ft | 503 kts | 316° |
| 2026-04-18 09:39 | 62.64481 | -7.07483 | 37633 ft | 501 kts | 316° |
| 2026-04-18 09:40 | 62.69565 | -7.17754 | 37638 ft | 502 kts | 316° |
| 2026-04-18 09:40 | 62.74687 | -7.28152 | 37644 ft | 504 kts | 316° |
| 2026-04-18 09:41 | 62.79819 | -7.38623 | 37649 ft | 504 kts | 315° |
| 2026-04-18 09:41 | 62.84939 | -7.49121 | 37648 ft | 503 kts | 315° |
| 2026-04-18 09:42 | 62.90040 | -7.59633 | 37654 ft | 502 kts | 315° |
| 2026-04-18 09:42 | 62.95116 | -7.70147 | 37658 ft | 501 kts | 315° |
| 2026-04-18 09:43 | 63.00165 | -7.80658 | 37666 ft | 503 kts | 315° |
| 2026-04-18 09:43 | 63.05256 | -7.91309 | 37665 ft | 505 kts | 315° |
| 2026-04-18 09:44 | 63.10347 | -8.02014 | 37673 ft | 505 kts | 315° |
| 2026-04-18 09:44 | 63.15423 | -8.12742 | 37669 ft | 504 kts | 315° |
| 2026-04-18 09:45 | 63.20476 | -8.23476 | 37669 ft | 503 kts | 315° |
| 2026-04-18 09:45 | 63.25484 | -8.34168 | 37669 ft | 503 kts | 315° |
| 2026-04-18 09:46 | 63.30529 | -8.44993 | 37674 ft | 504 kts | 315° |
| 2026-04-18 09:46 | 63.35577 | -8.55882 | 37681 ft | 506 kts | 315° |
| 2026-04-18 09:47 | 63.40623 | -8.66824 | 37686 ft | 506 kts | 315° |
| 2026-04-18 09:47 | 63.45654 | -8.77789 | 37684 ft | 505 kts | 314° |
| 2026-04-18 09:48 | 63.50677 | -8.88795 | 37685 ft | 504 kts | 314° |
| 2026-04-18 09:48 | 63.55648 | -8.99741 | 37691 ft | 504 kts | 314° |
| 2026-04-18 09:49 | 63.60638 | -9.10787 | 37685 ft | 503 kts | 314° |
| 2026-04-18 09:49 | 63.65612 | -9.21855 | 37688 ft | 503 kts | 314° |
| 2026-04-18 09:50 | 63.70578 | -9.32962 | 37697 ft | 504 kts | 314° |
| 2026-04-18 09:50 | 63.75554 | -9.44152 | 37692 ft | 504 kts | 314° |
| 2026-04-18 09:51 | 63.80521 | -9.55379 | 37692 ft | 504 kts | 314° |
| 2026-04-18 09:51 | 63.85478 | -9.66644 | 37693 ft | 505 kts | 314° |
| 2026-04-18 09:52 | 63.90428 | -9.77952 | 37691 ft | 504 kts | 314° |
| 2026-04-18 09:52 | 63.95333 | -9.89218 | 37691 ft | 505 kts | 313° |
| 2026-04-18 09:53 | 64.00116 | -10.00900 | 37715 ft | 501 kts | 302° |
| 2026-04-18 09:53 | 64.03661 | -10.14588 | 37703 ft | 503 kts | 298° |
| 2026-04-18 09:54 | 64.07109 | -10.28505 | 37696 ft | 503 kts | 298° |
| 2026-04-18 09:54 | 64.10552 | -10.42409 | 37708 ft | 502 kts | 298° |
| 2026-04-18 09:55 | 64.13972 | -10.56360 | 37708 ft | 502 kts | 298° |
| 2026-04-18 09:55 | 64.17382 | -10.70326 | 37706 ft | 501 kts | 297° |
| 2026-04-18 09:56 | 64.20751 | -10.84231 | 37714 ft | 501 kts | 297° |
| 2026-04-18 09:56 | 64.24129 | -10.98249 | 37716 ft | 500 kts | 297° |
| 2026-04-18 09:57 | 64.27493 | -11.12311 | 37725 ft | 502 kts | 297° |
| 2026-04-18 09:57 | 64.30838 | -11.26375 | 37730 ft | 504 kts | 296° |
| 2026-04-18 09:58 | 64.34195 | -11.40589 | 37739 ft | 504 kts | 296° |
| 2026-04-18 09:58 | 64.37545 | -11.54859 | 37728 ft | 504 kts | 296° |
| 2026-04-18 09:59 | 64.40873 | -11.69135 | 37736 ft | 503 kts | 296° |
| 2026-04-18 10:00 | 64.45800 | -11.90444 | 37742 ft | 503 kts | 296° |
| 2026-04-18 10:00 | 64.49087 | -12.04777 | 37757 ft | 505 kts | 296° |
| 2026-04-18 10:01 | 64.52383 | -12.19247 | 37754 ft | 506 kts | 296° |
| 2026-04-18 10:01 | 64.55658 | -12.33717 | 37767 ft | 505 kts | 295° |
| 2026-04-18 10:02 | 64.58912 | -12.48195 | 37767 ft | 504 kts | 295° |
| 2026-04-18 10:02 | 64.62128 | -12.62599 | 37775 ft | 505 kts | 295° |
| 2026-04-18 10:03 | 64.65355 | -12.77158 | 37776 ft | 505 kts | 295° |
| 2026-04-18 10:03 | 64.68572 | -12.91756 | 37784 ft | 504 kts | 295° |
| 2026-04-18 10:04 | 64.71763 | -13.06347 | 37774 ft | 503 kts | 295° |
| 2026-04-18 10:04 | 64.74932 | -13.20933 | 37780 ft | 502 kts | 295° |
| 2026-04-18 10:05 | 64.77550 | -13.33064 | 37787 ft | 501 kts | 295° |
| 2026-04-18 10:05 | 64.80683 | -13.47668 | 37786 ft | 499 kts | 295° |
| 2026-04-18 10:06 | 64.83788 | -13.62240 | 37794 ft | 499 kts | 295° |
| 2026-04-18 10:06 | 64.86888 | -13.76893 | 37799 ft | 500 kts | 295° |
| 2026-04-18 10:07 | 64.89977 | -13.91593 | 37801 ft | 501 kts | 294° |
| 2026-04-18 10:07 | 64.93027 | -14.06212 | 37812 ft | 500 kts | 294° |
| 2026-04-18 10:08 | 64.96090 | -14.20997 | 37827 ft | 500 kts | 294° |
| 2026-04-18 10:08 | 64.99127 | -14.35762 | 37839 ft | 499 kts | 294° |
| 2026-04-18 10:09 | 65.02147 | -14.50544 | 37853 ft | 499 kts | 294° |
| 2026-04-18 10:09 | 65.05137 | -14.65289 | 37862 ft | 500 kts | 294° |
| 2026-04-18 10:10 | 65.08155 | -14.80276 | 37869 ft | 501 kts | 293° |
| 2026-04-18 10:10 | 65.11128 | -14.95142 | 37870 ft | 502 kts | 293° |
| 2026-04-18 10:11 | 65.14097 | -15.10102 | 37879 ft | 500 kts | 293° |
| 2026-04-18 10:11 | 65.17042 | -15.25048 | 37891 ft | 499 kts | 293° |
| 2026-04-18 10:12 | 65.19973 | -15.40030 | 37891 ft | 500 kts | 293° |
| 2026-04-18 10:12 | 65.22898 | -15.55091 | 37904 ft | 501 kts | 292° |
| 2026-04-18 10:13 | 65.25810 | -15.70201 | 37894 ft | 501 kts | 292° |
| 2026-04-18 10:13 | 65.28703 | -15.85320 | 37902 ft | 500 kts | 292° |
| 2026-04-18 10:14 | 65.31560 | -16.00361 | 37910 ft | 499 kts | 292° |
| 2026-04-18 10:14 | 65.34413 | -16.15497 | 37911 ft | 499 kts | 292° |
| 2026-04-18 10:15 | 65.37248 | -16.30647 | 37919 ft | 499 kts | 292° |
| 2026-04-18 10:15 | 65.40080 | -16.45899 | 37923 ft | 501 kts | 291° |
| 2026-04-18 10:16 | 65.42904 | -16.61224 | 37923 ft | 502 kts | 291° |
| 2026-04-18 10:16 | 65.45714 | -16.76587 | 37929 ft | 501 kts | 291° |
| 2026-04-18 10:17 | 65.48501 | -16.91944 | 37924 ft | 500 kts | 291° |
| 2026-04-18 10:17 | 65.51262 | -17.07274 | 37923 ft | 498 kts | 291° |
| 2026-04-18 10:18 | 65.53989 | -17.22536 | 37923 ft | 499 kts | 291° |
| 2026-04-18 10:18 | 65.56730 | -17.37991 | 37928 ft | 502 kts | 290° |
| 2026-04-18 10:19 | 65.59463 | -17.53526 | 37930 ft | 502 kts | 290° |
| 2026-04-18 10:19 | 65.62175 | -17.69063 | 37945 ft | 501 kts | 290° |
| 2026-04-18 10:20 | 65.64865 | -17.84598 | 37946 ft | 500 kts | 290° |
| 2026-04-18 10:20 | 65.67541 | -18.00178 | 37948 ft | 499 kts | 290° |
| 2026-04-18 10:21 | 65.70188 | -18.15711 | 37951 ft | 500 kts | 290° |
| 2026-04-18 10:21 | 65.72836 | -18.31376 | 37950 ft | 501 kts | 289° |
| 2026-04-18 10:22 | 65.75474 | -18.47106 | 37950 ft | 502 kts | 289° |
| 2026-04-18 10:22 | 65.78079 | -18.62768 | 37954 ft | 502 kts | 289° |
| 2026-04-18 10:23 | 65.80698 | -18.78647 | 37958 ft | 501 kts | 289° |
| 2026-04-18 10:23 | 65.83264 | -18.94334 | 37967 ft | 500 kts | 289° |
| 2026-04-18 10:24 | 65.85826 | -19.10127 | 37968 ft | 501 kts | 289° |
| 2026-04-18 10:24 | 65.88378 | -19.25993 | 37979 ft | 502 kts | 289° |
| 2026-04-18 10:25 | 65.90920 | -19.41924 | 37975 ft | 502 kts | 288° |
| 2026-04-18 10:25 | 65.93439 | -19.57846 | 37977 ft | 501 kts | 288° |
| 2026-04-18 10:26 | 65.95941 | -19.73804 | 37975 ft | 500 kts | 288° |
| 2026-04-18 10:26 | 65.98421 | -19.89755 | 37980 ft | 500 kts | 288° |
| 2026-04-18 10:27 | 66.00766 | -20.05747 | 37983 ft | 500 kts | 285° |
| 2026-04-18 10:27 | 66.03011 | -20.21998 | 37978 ft | 502 kts | 286° |
| 2026-04-18 10:28 | 66.05194 | -20.38303 | 37982 ft | 501 kts | 285° |
| 2026-04-18 10:28 | 66.07376 | -20.54626 | 37982 ft | 501 kts | 285° |
| 2026-04-18 10:29 | 66.09533 | -20.70942 | 37963 ft | 500 kts | 285° |
| 2026-04-18 10:29 | 66.11669 | -20.87274 | 37973 ft | 499 kts | 285° |
| 2026-04-18 10:30 | 66.13774 | -21.03506 | 37984 ft | 500 kts | 285° |
| 2026-04-18 10:30 | 66.15879 | -21.19911 | 37984 ft | 501 kts | 284° |
| 2026-04-18 10:31 | 66.17973 | -21.36379 | 37980 ft | 502 kts | 284° |
| 2026-04-18 10:31 | 66.20050 | -21.52900 | 37982 ft | 502 kts | 284° |
| 2026-04-18 10:32 | 66.22110 | -21.69430 | 37986 ft | 501 kts | 284° |
| 2026-04-18 10:32 | 66.24134 | -21.85855 | 37985 ft | 500 kts | 284° |
| 2026-04-18 10:33 | 66.26151 | -22.02380 | 37989 ft | 499 kts | 284° |
| 2026-04-18 10:33 | 66.28142 | -22.18875 | 37988 ft | 499 kts | 284° |
| 2026-04-18 10:34 | 66.30124 | -22.35454 | 37989 ft | 501 kts | 283° |
| 2026-04-18 10:34 | 66.32079 | -22.51984 | 37987 ft | 502 kts | 283° |
| 2026-04-18 10:35 | 66.34038 | -22.68725 | 37990 ft | 502 kts | 283° |
| 2026-04-18 10:35 | 66.35968 | -22.85401 | 37985 ft | 501 kts | 283° |
| 2026-04-18 10:36 | 66.37882 | -23.02112 | 37984 ft | 500 kts | 283° |
| 2026-04-18 10:36 | 66.39769 | -23.18770 | 37986 ft | 500 kts | 283° |
| 2026-04-18 10:37 | 66.41645 | -23.35515 | 37990 ft | 501 kts | 283° |
| 2026-04-18 10:37 | 66.43507 | -23.52322 | 37984 ft | 502 kts | 282° |
| 2026-04-18 10:38 | 66.45351 | -23.69154 | 37977 ft | 502 kts | 282° |
| 2026-04-18 10:38 | 66.47170 | -23.85945 | 37976 ft | 503 kts | 282° |
| 2026-04-18 10:39 | 66.48982 | -24.02870 | 37975 ft | 503 kts | 282° |
| 2026-04-18 10:39 | 66.50776 | -24.19813 | 37984 ft | 502 kts | 282° |
| 2026-04-18 10:40 | 66.52544 | -24.36721 | 37975 ft | 501 kts | 282° |
| 2026-04-18 10:40 | 66.54281 | -24.53515 | 37976 ft | 500 kts | 282° |
| 2026-04-18 10:41 | 66.56010 | -24.70437 | 37975 ft | 501 kts | 281° |
| 2026-04-18 10:41 | 66.57729 | -24.87463 | 37972 ft | 503 kts | 281° |
| 2026-04-18 10:42 | 66.59434 | -25.04559 | 37971 ft | 504 kts | 281° |
| 2026-04-18 10:42 | 66.61118 | -25.21650 | 37967 ft | 502 kts | 281° |
| 2026-04-18 10:43 | 66.62782 | -25.38757 | 37967 ft | 501 kts | 281° |
| 2026-04-18 10:43 | 66.64409 | -25.55686 | 37959 ft | 500 kts | 281° |
| 2026-04-18 10:44 | 66.66029 | -25.72770 | 37969 ft | 502 kts | 281° |
| 2026-04-18 10:44 | 66.67638 | -25.89942 | 37960 ft | 504 kts | 280° |
| 2026-04-18 10:45 | 66.69230 | -26.07164 | 37960 ft | 504 kts | 280° |
| 2026-04-18 10:45 | 66.70803 | -26.24396 | 37957 ft | 503 kts | 280° |
| 2026-04-18 10:46 | 66.72353 | -26.41614 | 37958 ft | 502 kts | 280° |
| 2026-04-18 10:46 | 66.73881 | -26.58822 | 37952 ft | 501 kts | 280° |
| 2026-04-18 10:47 | 66.75393 | -26.76075 | 37951 ft | 501 kts | 279° |
| 2026-04-18 10:47 | 66.76886 | -26.93340 | 37954 ft | 502 kts | 279° |
| 2026-04-18 10:48 | 66.78353 | -27.10551 | 37950 ft | 504 kts | 279° |
| 2026-04-18 10:48 | 66.79816 | -27.27956 | 37946 ft | 505 kts | 279° |
| 2026-04-18 10:49 | 66.81260 | -27.45390 | 37945 ft | 505 kts | 279° |
| 2026-04-18 10:49 | 66.82685 | -27.62843 | 37937 ft | 504 kts | 279° |
| 2026-04-18 10:50 | 66.84080 | -27.80176 | 37935 ft | 503 kts | 279° |
| 2026-04-18 10:50 | 66.85461 | -27.97583 | 37920 ft | 501 kts | 278° |
| 2026-04-18 10:51 | 66.86816 | -28.14963 | 37930 ft | 501 kts | 278° |
| 2026-04-18 10:51 | 66.88154 | -28.32352 | 37929 ft | 501 kts | 277° |
| 2026-04-18 10:52 | 66.89474 | -28.49783 | 37932 ft | 502 kts | 277° |
| 2026-04-18 10:52 | 66.90557 | -28.64295 | 37926 ft | 502 kts | 277° |
| 2026-04-18 10:53 | 66.91845 | -28.81808 | 37924 ft | 502 kts | 277° |
| 2026-04-18 10:53 | 66.93113 | -28.99316 | 37920 ft | 503 kts | 277° |
| 2026-04-18 10:54 | 66.94565 | -29.19739 | 37918 ft | 502 kts | 277° |
| 2026-04-18 10:54 | 66.95789 | -29.37262 | 37917 ft | 501 kts | 276° |
| 2026-04-18 10:55 | 66.96789 | -29.51802 | 37915 ft | 500 kts | 276° |
| 2026-04-18 10:55 | 66.97973 | -29.69295 | 37907 ft | 499 kts | 276° |
| 2026-04-18 10:56 | 66.99139 | -29.86817 | 37914 ft | 500 kts | 276° |
| 2026-04-18 10:56 | 67.00149 | -30.04412 | 37928 ft | 498 kts | 270° |
| 2026-04-18 10:57 | 67.00680 | -30.22137 | 37908 ft | 499 kts | 271° |
| 2026-04-18 10:57 | 67.01208 | -30.39850 | 37902 ft | 499 kts | 270° |
| 2026-04-18 10:58 | 67.01704 | -30.57456 | 37902 ft | 499 kts | 270° |
| 2026-04-18 10:58 | 67.02190 | -30.75194 | 37901 ft | 499 kts | 270° |
| 2026-04-18 10:59 | 67.02652 | -30.92933 | 37898 ft | 499 kts | 270° |
| 2026-04-18 10:59 | 67.03096 | -31.10644 | 37896 ft | 498 kts | 270° |
| 2026-04-18 11:00 | 67.03519 | -31.28354 | 37884 ft | 498 kts | 270° |
| 2026-04-18 11:00 | 67.03919 | -31.45926 | 37888 ft | 497 kts | 269° |
| 2026-04-18 11:01 | 67.04303 | -31.63654 | 37897 ft | 498 kts | 269° |
| 2026-04-18 11:01 | 67.04668 | -31.81396 | 37884 ft | 499 kts | 269° |
| 2026-04-18 11:02 | 67.05180 | -32.08119 | 37882 ft | 501 kts | 269° |
| 2026-04-18 11:02 | 67.05496 | -32.25943 | 37885 ft | 500 kts | 269° |
| 2026-04-18 11:03 | 67.05790 | -32.43616 | 37876 ft | 499 kts | 268° |
| 2026-04-18 11:03 | 67.06065 | -32.61367 | 37879 ft | 498 kts | 268° |
| 2026-04-18 11:04 | 67.06320 | -32.79111 | 37885 ft | 498 kts | 268° |
| 2026-04-18 11:04 | 67.06556 | -32.96876 | 37873 ft | 500 kts | 268° |
| 2026-04-18 11:05 | 67.06774 | -33.14717 | 37883 ft | 501 kts | 268° |
| 2026-04-18 11:05 | 67.06971 | -33.32589 | 37880 ft | 500 kts | 267° |
| 2026-04-18 11:06 | 67.07148 | -33.50428 | 37879 ft | 499 kts | 267° |
| 2026-04-18 11:06 | 67.07305 | -33.68187 | 37885 ft | 498 kts | 267° |
| 2026-04-18 11:07 | 67.07441 | -33.85833 | 37886 ft | 498 kts | 267° |
| 2026-04-18 11:07 | 67.07558 | -34.03644 | 37891 ft | 499 kts | 267° |
| 2026-04-18 11:08 | 67.07656 | -34.21471 | 37884 ft | 499 kts | 266° |
| 2026-04-18 11:08 | 67.07733 | -34.39299 | 37896 ft | 499 kts | 266° |
| 2026-04-18 11:09 | 67.07791 | -34.57096 | 37889 ft | 498 kts | 266° |
| 2026-04-18 11:09 | 67.07829 | -34.74758 | 37892 ft | 498 kts | 266° |
| 2026-04-18 11:10 | 67.07847 | -34.92521 | 37885 ft | 498 kts | 266° |
| 2026-04-18 11:10 | 67.07845 | -35.10375 | 37885 ft | 501 kts | 266° |
| 2026-04-18 11:11 | 67.07824 | -35.28276 | 37870 ft | 502 kts | 266° |
| 2026-04-18 11:11 | 67.07782 | -35.46145 | 37868 ft | 501 kts | 265° |
| 2026-04-18 11:12 | 67.07721 | -35.63985 | 37854 ft | 500 kts | 265° |
| 2026-04-18 11:12 | 67.07639 | -35.81803 | 37845 ft | 500 kts | 265° |
| 2026-04-18 11:13 | 67.07538 | -35.99654 | 37828 ft | 501 kts | 265° |
| 2026-04-18 11:13 | 67.07417 | -36.17506 | 37812 ft | 501 kts | 265° |
| 2026-04-18 11:14 | 67.07276 | -36.35263 | 37793 ft | 500 kts | 264° |
| 2026-04-18 11:14 | 67.07114 | -36.53124 | 37774 ft | 501 kts | 264° |
| 2026-04-18 11:15 | 67.06933 | -36.71010 | 37768 ft | 501 kts | 264° |
| 2026-04-18 11:15 | 67.06732 | -36.88878 | 37761 ft | 501 kts | 264° |
| 2026-04-18 11:16 | 67.06510 | -37.06756 | 37750 ft | 501 kts | 263° |
| 2026-04-18 11:16 | 67.06269 | -37.24594 | 37754 ft | 500 kts | 263° |
| 2026-04-18 11:17 | 67.06007 | -37.42437 | 37762 ft | 502 kts | 263° |
| 2026-04-18 11:17 | 67.05726 | -37.60253 | 37763 ft | 504 kts | 263° |
| 2026-04-18 11:18 | 67.05424 | -37.78205 | 37760 ft | 504 kts | 263° |
| 2026-04-18 11:18 | 67.05101 | -37.96157 | 37774 ft | 504 kts | 263° |
| 2026-04-18 11:19 | 67.04757 | -38.14088 | 37796 ft | 503 kts | 263° |
| 2026-04-18 11:19 | 67.04395 | -38.31990 | 37784 ft | 502 kts | 263° |
| 2026-04-18 11:20 | 67.04012 | -38.49862 | 37792 ft | 502 kts | 262° |
| 2026-04-18 11:20 | 67.03610 | -38.67697 | 37784 ft | 501 kts | 262° |
| 2026-04-18 11:21 | 67.03191 | -38.85445 | 37784 ft | 503 kts | 262° |
| 2026-04-18 11:21 | 67.02747 | -39.03332 | 37782 ft | 504 kts | 262° |
| 2026-04-18 11:22 | 67.02283 | -39.21281 | 37780 ft | 505 kts | 262° |
| 2026-04-18 11:22 | 67.01797 | -39.39239 | 37779 ft | 505 kts | 262° |
| 2026-04-18 11:23 | 67.01293 | -39.57117 | 37775 ft | 503 kts | 262° |
| 2026-04-18 11:23 | 67.00771 | -39.74938 | 37774 ft | 503 kts | 262° |
| 2026-04-18 11:24 | 67.00226 | -39.92813 | 37792 ft | 505 kts | 261° |
| 2026-04-18 11:24 | 66.99903 | -40.01631 | 38038 ft | 501 kts | 256° |
| 2026-04-18 11:24 | 66.99322 | -40.10408 | 38220 ft | 501 kts | 256° |
| 2026-04-18 11:25 | 66.98736 | -40.19198 | 38429 ft | 501 kts | 256° |
| 2026-04-18 11:25 | 66.98154 | -40.27970 | 38604 ft | 501 kts | 256° |
| 2026-04-18 11:25 | 66.97567 | -40.36748 | 38782 ft | 501 kts | 256° |
| 2026-04-18 11:25 | 66.96971 | -40.45534 | 38955 ft | 501 kts | 256° |
| 2026-04-18 11:26 | 66.96369 | -40.54309 | 39128 ft | 501 kts | 256° |
| 2026-04-18 11:26 | 66.95765 | -40.63066 | 39300 ft | 501 kts | 256° |
| 2026-04-18 11:26 | 66.95157 | -40.71819 | 39469 ft | 500 kts | 256° |
| 2026-04-18 11:26 | 66.94543 | -40.80569 | 39634 ft | 500 kts | 256° |
| 2026-04-18 11:27 | 66.93924 | -40.89304 | 39739 ft | 502 kts | 256° |
| 2026-04-18 11:27 | 66.93305 | -40.97980 | 39728 ft | 505 kts | 256° |
| 2026-04-18 11:27 | 66.92037 | -41.15568 | 39719 ft | 502 kts | 256° |
| 2026-04-18 11:28 | 66.90755 | -41.33010 | 39717 ft | 500 kts | 256° |
| 2026-04-18 11:28 | 66.89460 | -41.50394 | 39711 ft | 499 kts | 255° |
| 2026-04-18 11:29 | 66.88146 | -41.67743 | 39704 ft | 499 kts | 255° |
| 2026-04-18 11:29 | 66.86812 | -41.85084 | 39702 ft | 501 kts | 255° |
| 2026-04-18 11:30 | 66.85454 | -42.02480 | 39708 ft | 502 kts | 255° |
| 2026-04-18 11:30 | 66.84082 | -42.19785 | 39703 ft | 503 kts | 255° |
| 2026-04-18 11:31 | 66.82680 | -42.37210 | 39699 ft | 503 kts | 255° |
| 2026-04-18 11:31 | 66.81262 | -42.54575 | 39700 ft | 501 kts | 255° |
| 2026-04-18 11:32 | 66.79832 | -42.71841 | 39696 ft | 499 kts | 255° |
| 2026-04-18 11:32 | 66.78386 | -42.89040 | 39689 ft | 499 kts | 254° |
| 2026-04-18 11:33 | 66.76919 | -43.06258 | 39689 ft | 501 kts | 254° |
| 2026-04-18 11:33 | 66.75425 | -43.23551 | 39685 ft | 503 kts | 254° |
| 2026-04-18 11:34 | 66.73919 | -43.40745 | 39678 ft | 502 kts | 254° |
| 2026-04-18 11:34 | 66.72388 | -43.57983 | 39679 ft | 501 kts | 254° |
| 2026-04-18 11:35 | 66.70842 | -43.75154 | 39680 ft | 500 kts | 254° |
| 2026-04-18 11:35 | 66.69279 | -43.92294 | 39679 ft | 500 kts | 253° |
| 2026-04-18 11:36 | 66.67699 | -44.09386 | 39684 ft | 501 kts | 253° |
| 2026-04-18 11:36 | 66.66106 | -44.26409 | 39688 ft | 502 kts | 253° |
| 2026-04-18 11:37 | 66.64475 | -44.43601 | 39684 ft | 503 kts | 253° |
| 2026-04-18 11:37 | 66.62826 | -44.60779 | 39684 ft | 504 kts | 253° |
| 2026-04-18 11:38 | 66.61161 | -44.77897 | 39684 ft | 503 kts | 253° |
| 2026-04-18 11:38 | 66.59481 | -44.94956 | 39683 ft | 502 kts | 253° |
| 2026-04-18 11:39 | 66.57784 | -45.11982 | 39679 ft | 501 kts | 253° |
| 2026-04-18 11:39 | 66.56081 | -45.28849 | 39676 ft | 501 kts | 253° |
| 2026-04-18 11:40 | 66.54350 | -45.45805 | 39675 ft | 502 kts | 252° |
| 2026-04-18 11:40 | 66.52590 | -45.62826 | 39668 ft | 504 kts | 252° |
| 2026-04-18 11:41 | 66.51112 | -45.76972 | 39664 ft | 504 kts | 252° |
| 2026-04-18 11:41 | 66.49316 | -45.93980 | 39658 ft | 504 kts | 252° |
| 2026-04-18 11:42 | 66.47504 | -46.10935 | 39651 ft | 502 kts | 252° |
| 2026-04-18 11:42 | 66.45682 | -46.27794 | 39643 ft | 501 kts | 252° |
| 2026-04-18 11:43 | 66.43856 | -46.44493 | 39639 ft | 500 kts | 252° |
| 2026-04-18 11:43 | 66.42001 | -46.61269 | 39634 ft | 502 kts | 252° |
| 2026-04-18 11:44 | 66.40121 | -46.78086 | 39628 ft | 503 kts | 252° |
| 2026-04-18 11:44 | 66.38221 | -46.94894 | 39622 ft | 503 kts | 251° |
| 2026-04-18 11:45 | 66.36308 | -47.11634 | 39626 ft | 501 kts | 251° |
| 2026-04-18 11:45 | 66.34387 | -47.28264 | 39619 ft | 499 kts | 251° |
| 2026-04-18 11:46 | 66.32449 | -47.44857 | 39628 ft | 499 kts | 251° |
| 2026-04-18 11:46 | 66.30489 | -47.61459 | 39636 ft | 501 kts | 251° |
| 2026-04-18 11:47 | 66.28507 | -47.78079 | 39643 ft | 502 kts | 251° |
| 2026-04-18 11:47 | 66.26506 | -47.94680 | 39649 ft | 501 kts | 251° |
| 2026-04-18 11:48 | 66.24491 | -48.11220 | 39656 ft | 499 kts | 251° |
| 2026-04-18 11:48 | 66.22470 | -48.27649 | 39666 ft | 498 kts | 251° |
| 2026-04-18 11:49 | 66.20444 | -48.43939 | 39673 ft | 498 kts | 251° |
| 2026-04-18 11:49 | 66.18382 | -48.60366 | 39684 ft | 500 kts | 251° |
| 2026-04-18 11:50 | 66.16302 | -48.76767 | 39690 ft | 500 kts | 251° |
| 2026-04-18 11:50 | 66.14204 | -48.93143 | 39685 ft | 499 kts | 251° |
| 2026-04-18 11:51 | 66.12093 | -49.09464 | 39682 ft | 499 kts | 251° |
| 2026-04-18 11:51 | 66.09966 | -49.25745 | 39676 ft | 498 kts | 251° |
| 2026-04-18 11:52 | 66.07825 | -49.41973 | 39671 ft | 497 kts | 250° |
| 2026-04-18 11:52 | 66.05670 | -49.58159 | 39669 ft | 497 kts | 250° |
| 2026-04-18 11:53 | 66.03507 | -49.74240 | 39660 ft | 499 kts | 250° |
| 2026-04-18 11:53 | 66.01305 | -49.90465 | 39659 ft | 500 kts | 250° |
| 2026-04-18 11:54 | 65.98958 | -50.06536 | 39652 ft | 499 kts | 248° |
| 2026-04-18 11:54 | 65.96503 | -50.22494 | 39655 ft | 499 kts | 248° |
| 2026-04-18 11:55 | 65.93980 | -50.38379 | 39653 ft | 500 kts | 248° |
| 2026-04-18 11:55 | 65.91477 | -50.54158 | 39655 ft | 500 kts | 248° |
| 2026-04-18 11:56 | 65.88935 | -50.69996 | 39650 ft | 499 kts | 248° |
| 2026-04-18 11:56 | 65.86380 | -50.85786 | 39650 ft | 498 kts | 248° |
| 2026-04-18 11:57 | 65.83817 | -51.01513 | 39637 ft | 497 kts | 248° |
| 2026-04-18 11:57 | 65.81254 | -51.17089 | 39632 ft | 497 kts | 247° |
| 2026-04-18 11:58 | 65.78655 | -51.32770 | 39631 ft | 497 kts | 247° |
| 2026-04-18 11:58 | 65.76060 | -51.48294 | 39634 ft | 498 kts | 247° |
| 2026-04-18 11:59 | 65.73434 | -51.63884 | 39648 ft | 499 kts | 247° |
| 2026-04-18 11:59 | 65.70776 | -51.79526 | 39649 ft | 500 kts | 247° |
| 2026-04-18 12:00 | 65.68104 | -51.95135 | 39638 ft | 499 kts | 247° |
| 2026-04-18 12:00 | 65.65442 | -52.10557 | 39635 ft | 498 kts | 246° |
| 2026-04-18 12:01 | 65.61407 | -52.33699 | 39629 ft | 496 kts | 246° |
| 2026-04-18 12:02 | 65.58701 | -52.49072 | 39628 ft | 496 kts | 246° |
| 2026-04-18 12:02 | 65.55977 | -52.64425 | 39625 ft | 498 kts | 246° |
| 2026-04-18 12:03 | 65.53223 | -52.79830 | 39632 ft | 500 kts | 246° |
| 2026-04-18 12:03 | 65.50451 | -52.95210 | 39633 ft | 500 kts | 246° |
| 2026-04-18 12:04 | 65.47669 | -53.10531 | 39633 ft | 498 kts | 246° |
| 2026-04-18 12:04 | 65.44881 | -53.25769 | 39631 ft | 496 kts | 246° |
| 2026-04-18 12:05 | 65.42103 | -53.40832 | 39639 ft | 495 kts | 246° |
| 2026-04-18 12:05 | 65.39290 | -53.55975 | 39642 ft | 496 kts | 245° |
| 2026-04-18 12:06 | 65.36477 | -53.71003 | 39646 ft | 496 kts | 245° |
| 2026-04-18 12:06 | 65.33617 | -53.86173 | 39658 ft | 497 kts | 245° |
| 2026-04-18 12:07 | 65.30775 | -54.01128 | 39675 ft | 497 kts | 245° |
| 2026-04-18 12:07 | 65.27903 | -54.16137 | 39684 ft | 495 kts | 245° |
| 2026-04-18 12:08 | 65.25027 | -54.31056 | 39676 ft | 493 kts | 245° |
| 2026-04-18 12:08 | 65.22149 | -54.45873 | 39679 ft | 491 kts | 245° |
| 2026-04-18 12:09 | 65.19267 | -54.60605 | 39698 ft | 491 kts | 245° |
| 2026-04-18 12:09 | 65.16368 | -54.75320 | 39704 ft | 490 kts | 245° |
| 2026-04-18 12:10 | 65.13482 | -54.89868 | 39712 ft | 489 kts | 245° |
| 2026-04-18 12:10 | 65.10567 | -55.04453 | 39718 ft | 488 kts | 245° |
| 2026-04-18 12:11 | 65.07639 | -55.19002 | 39726 ft | 488 kts | 245° |
| 2026-04-18 12:11 | 65.04708 | -55.33469 | 39723 ft | 487 kts | 245° |
| 2026-04-18 12:12 | 65.01758 | -55.47925 | 39741 ft | 487 kts | 245° |
| 2026-04-18 12:12 | 64.98800 | -55.62319 | 39743 ft | 486 kts | 245° |
| 2026-04-18 12:13 | 64.95844 | -55.76606 | 39751 ft | 486 kts | 245° |
| 2026-04-18 12:13 | 64.92862 | -55.90919 | 39754 ft | 485 kts | 245° |
| 2026-04-18 12:14 | 64.89872 | -56.05174 | 39764 ft | 485 kts | 245° |
| 2026-04-18 12:14 | 64.86870 | -56.19394 | 39764 ft | 485 kts | 245° |
| 2026-04-18 12:15 | 64.83853 | -56.33582 | 39772 ft | 485 kts | 245° |
| 2026-04-18 12:15 | 64.80823 | -56.47747 | 39781 ft | 485 kts | 245° |
| 2026-04-18 12:16 | 64.77785 | -56.61842 | 39785 ft | 483 kts | 245° |
| 2026-04-18 12:16 | 64.74761 | -56.75783 | 39795 ft | 483 kts | 245° |
| 2026-04-18 12:17 | 64.71706 | -56.89781 | 39801 ft | 482 kts | 245° |
| 2026-04-18 12:17 | 64.68643 | -57.03712 | 39803 ft | 481 kts | 245° |
| 2026-04-18 12:18 | 64.65571 | -57.17606 | 39812 ft | 481 kts | 245° |
| 2026-04-18 12:18 | 64.62492 | -57.31434 | 39820 ft | 480 kts | 245° |
| 2026-04-18 12:19 | 64.59402 | -57.45232 | 39824 ft | 480 kts | 245° |
| 2026-04-18 12:19 | 64.56318 | -57.58900 | 39835 ft | 479 kts | 245° |
| 2026-04-18 12:20 | 64.53210 | -57.72595 | 39841 ft | 479 kts | 245° |
| 2026-04-18 12:20 | 64.50081 | -57.86299 | 39850 ft | 480 kts | 244° |
| 2026-04-18 12:21 | 64.46940 | -57.99963 | 39854 ft | 480 kts | 244° |
| 2026-04-18 12:21 | 64.43779 | -58.13628 | 39860 ft | 480 kts | 244° |
| 2026-04-18 12:22 | 64.40614 | -58.27231 | 39870 ft | 480 kts | 244° |
| 2026-04-18 12:22 | 64.37456 | -58.40712 | 39875 ft | 481 kts | 244° |
| 2026-04-18 12:23 | 64.34254 | -58.54298 | 39878 ft | 483 kts | 244° |
| 2026-04-18 12:23 | 64.31027 | -58.67903 | 39890 ft | 484 kts | 243° |
| 2026-04-18 12:24 | 64.27785 | -58.81486 | 39887 ft | 482 kts | 243° |
| 2026-04-18 12:24 | 64.24546 | -58.94971 | 39895 ft | 480 kts | 243° |
| 2026-04-18 12:25 | 64.21882 | -59.08813 | 39910 ft | 477 kts | 251° |
| 2026-04-18 12:25 | 64.19499 | -59.23067 | 39919 ft | 478 kts | 251° |
| 2026-04-18 12:26 | 64.17110 | -59.37345 | 39919 ft | 479 kts | 251° |
| 2026-04-18 12:26 | 64.14699 | -59.51584 | 39925 ft | 478 kts | 251° |
| 2026-04-18 12:27 | 64.12287 | -59.65765 | 39923 ft | 477 kts | 251° |
| 2026-04-18 12:27 | 64.09861 | -59.79900 | 39924 ft | 477 kts | 251° |
| 2026-04-18 12:28 | 64.07444 | -59.93889 | 39924 ft | 476 kts | 251° |
| 2026-04-18 12:28 | 64.04995 | -60.07951 | 39925 ft | 475 kts | 251° |
| 2026-04-18 12:29 | 64.02544 | -60.21932 | 39925 ft | 474 kts | 251° |
| 2026-04-18 12:29 | 64.00083 | -60.35863 | 39925 ft | 473 kts | 250° |
| 2026-04-18 12:30 | 63.97611 | -60.49760 | 39930 ft | 472 kts | 250° |
| 2026-04-18 12:30 | 63.95551 | -60.61265 | 39933 ft | 473 kts | 250° |
| 2026-04-18 12:31 | 63.93057 | -60.75104 | 39936 ft | 473 kts | 250° |
| 2026-04-18 12:31 | 63.90552 | -60.88904 | 39940 ft | 472 kts | 250° |
| 2026-04-18 12:32 | 63.88037 | -61.02664 | 39942 ft | 472 kts | 250° |
| 2026-04-18 12:32 | 63.85513 | -61.16381 | 39951 ft | 471 kts | 250° |
| 2026-04-18 12:33 | 63.82977 | -61.30065 | 39956 ft | 470 kts | 250° |
| 2026-04-18 12:33 | 63.80447 | -61.43625 | 39953 ft | 469 kts | 250° |
| 2026-04-18 12:34 | 63.77896 | -61.57201 | 39962 ft | 468 kts | 250° |
| 2026-04-18 12:34 | 63.75334 | -61.70747 | 39971 ft | 469 kts | 250° |
| 2026-04-18 12:35 | 63.72749 | -61.84317 | 39981 ft | 469 kts | 250° |
| 2026-04-18 12:35 | 63.70175 | -61.97746 | 39983 ft | 469 kts | 250° |
| 2026-04-18 12:36 | 63.67574 | -62.11222 | 39986 ft | 468 kts | 250° |
| 2026-04-18 12:36 | 63.64968 | -62.24636 | 39990 ft | 467 kts | 250° |
| 2026-04-18 12:37 | 63.62345 | -62.38042 | 39988 ft | 466 kts | 249° |
| 2026-04-18 12:37 | 63.59723 | -62.51361 | 39992 ft | 465 kts | 249° |
| 2026-04-18 12:38 | 63.57092 | -62.64641 | 39999 ft | 464 kts | 249° |
| 2026-04-18 12:38 | 63.54469 | -62.77791 | 40000 ft | 464 kts | 249° |
| 2026-04-18 12:39 | 63.51824 | -62.90966 | 40003 ft | 463 kts | 249° |
| 2026-04-18 12:39 | 63.48825 | -63.03711 | 40031 ft | 467 kts | 238° |
| 2026-04-18 12:40 | 63.45047 | -63.15588 | 40023 ft | 469 kts | 238° |
| 2026-04-18 12:40 | 63.41262 | -63.27408 | 40021 ft | 467 kts | 238° |
| 2026-04-18 12:41 | 63.37478 | -63.39186 | 40017 ft | 466 kts | 238° |
| 2026-04-18 12:41 | 63.33713 | -63.50828 | 40014 ft | 465 kts | 238° |
| 2026-04-18 12:42 | 63.29920 | -63.62511 | 40014 ft | 466 kts | 238° |
| 2026-04-18 12:42 | 63.26105 | -63.74191 | 40013 ft | 467 kts | 238° |
| 2026-04-18 12:43 | 63.22273 | -63.85867 | 40014 ft | 468 kts | 238° |
| 2026-04-18 12:43 | 63.18436 | -63.97495 | 40018 ft | 466 kts | 238° |
| 2026-04-18 12:44 | 63.14604 | -64.09052 | 40017 ft | 464 kts | 238° |
| 2026-04-18 12:44 | 63.10782 | -64.20518 | 40019 ft | 463 kts | 238° |
| 2026-04-18 12:45 | 63.06971 | -64.31899 | 40017 ft | 464 kts | 238° |
| 2026-04-18 12:45 | 63.03118 | -64.43343 | 40019 ft | 465 kts | 238° |
| 2026-04-18 12:46 | 62.99248 | -64.54781 | 40030 ft | 465 kts | 238° |
| 2026-04-18 12:46 | 62.95373 | -64.66172 | 40022 ft | 464 kts | 238° |
| 2026-04-18 12:47 | 62.91532 | -64.77413 | 40020 ft | 462 kts | 238° |
| 2026-04-18 12:47 | 62.87663 | -64.88675 | 40026 ft | 461 kts | 238° |
| 2026-04-18 12:48 | 62.83799 | -64.99872 | 40037 ft | 460 kts | 238° |
| 2026-04-18 12:48 | 62.79919 | -65.11059 | 40045 ft | 461 kts | 237° |
| 2026-04-18 12:49 | 62.76053 | -65.22148 | 40049 ft | 462 kts | 237° |
| 2026-04-18 12:49 | 62.72149 | -65.33294 | 40052 ft | 462 kts | 237° |
| 2026-04-18 12:50 | 62.68246 | -65.44382 | 40061 ft | 461 kts | 237° |
| 2026-04-18 12:50 | 62.64332 | -65.55447 | 40064 ft | 461 kts | 237° |
| 2026-04-18 12:51 | 62.60411 | -65.66479 | 40069 ft | 460 kts | 237° |
| 2026-04-18 12:51 | 62.56494 | -65.77445 | 40076 ft | 459 kts | 237° |
| 2026-04-18 12:52 | 62.52576 | -65.88360 | 40075 ft | 458 kts | 237° |
| 2026-04-18 12:52 | 62.48655 | -65.99235 | 40076 ft | 458 kts | 237° |
| 2026-04-18 12:53 | 62.44752 | -66.10005 | 40082 ft | 458 kts | 237° |
| 2026-04-18 12:53 | 62.40811 | -66.20831 | 40081 ft | 459 kts | 237° |
| 2026-04-18 12:54 | 62.36858 | -66.31637 | 40087 ft | 458 kts | 237° |
| 2026-04-18 12:54 | 62.32904 | -66.42392 | 40088 ft | 457 kts | 237° |
| 2026-04-18 12:55 | 62.28945 | -66.53115 | 40094 ft | 458 kts | 237° |
| 2026-04-18 12:55 | 62.24959 | -66.63857 | 40094 ft | 460 kts | 236° |
| 2026-04-18 12:56 | 62.20985 | -66.74518 | 40101 ft | 460 kts | 236° |
| 2026-04-18 12:56 | 62.16985 | -66.85198 | 40116 ft | 459 kts | 236° |
| 2026-04-18 12:57 | 62.12978 | -66.95844 | 40116 ft | 459 kts | 236° |
| 2026-04-18 12:57 | 62.08968 | -67.06453 | 40112 ft | 459 kts | 236° |
| 2026-04-18 12:58 | 62.04952 | -67.17025 | 40112 ft | 458 kts | 236° |
| 2026-04-18 12:58 | 62.00936 | -67.27549 | 40118 ft | 457 kts | 236° |
| 2026-04-18 12:59 | 61.96946 | -67.37956 | 40122 ft | 456 kts | 236° |
| 2026-04-18 12:59 | 61.92927 | -67.48392 | 40120 ft | 456 kts | 236° |
| 2026-04-18 13:00 | 61.88907 | -67.58782 | 40122 ft | 456 kts | 236° |
| 2026-04-18 13:00 | 61.84868 | -67.69176 | 40128 ft | 456 kts | 236° |
| 2026-04-18 13:01 | 61.80820 | -67.79541 | 40130 ft | 457 kts | 236° |
| 2026-04-18 13:01 | 61.76758 | -67.89896 | 40129 ft | 456 kts | 236° |
| 2026-04-18 13:02 | 61.72728 | -68.00124 | 40133 ft | 456 kts | 236° |
| 2026-04-18 13:02 | 61.68672 | -68.10372 | 40145 ft | 455 kts | 236° |
| 2026-04-18 13:03 | 61.64610 | -68.20588 | 40149 ft | 453 kts | 236° |
| 2026-04-18 13:03 | 61.58549 | -68.35747 | 40154 ft | 451 kts | 236° |
| 2026-04-18 13:04 | 61.54508 | -68.45799 | 40146 ft | 450 kts | 236° |
| 2026-04-18 13:04 | 61.50455 | -68.55837 | 40152 ft | 451 kts | 235° |
| 2026-04-18 13:05 | 61.46393 | -68.65848 | 40153 ft | 451 kts | 235° |
| 2026-04-18 13:05 | 61.42323 | -68.75839 | 40151 ft | 452 kts | 235° |
| 2026-04-18 13:06 | 61.38241 | -68.85813 | 40153 ft | 452 kts | 235° |
| 2026-04-18 13:06 | 61.34156 | -68.95752 | 40161 ft | 450 kts | 235° |
| 2026-04-18 13:07 | 61.30076 | -69.05634 | 40159 ft | 449 kts | 235° |
| 2026-04-18 13:07 | 61.25998 | -69.15470 | 40174 ft | 448 kts | 235° |
| 2026-04-18 13:08 | 61.21927 | -69.25246 | 40178 ft | 447 kts | 235° |
| 2026-04-18 13:08 | 61.17878 | -69.34929 | 40186 ft | 448 kts | 235° |
| 2026-04-18 13:09 | 61.13776 | -69.44695 | 40190 ft | 450 kts | 235° |
| 2026-04-18 13:09 | 61.09650 | -69.54477 | 40194 ft | 451 kts | 234° |
| 2026-04-18 13:10 | 61.05529 | -69.64201 | 40195 ft | 449 kts | 234° |
| 2026-04-18 13:10 | 61.01417 | -69.73866 | 40195 ft | 447 kts | 234° |
| 2026-04-18 13:11 | 60.97305 | -69.83490 | 40193 ft | 447 kts | 234° |
| 2026-04-18 13:11 | 60.93193 | -69.93074 | 40183 ft | 447 kts | 234° |
| 2026-04-18 13:12 | 60.89066 | -70.02650 | 40178 ft | 448 kts | 234° |
| 2026-04-18 13:12 | 60.84928 | -70.12211 | 40169 ft | 448 kts | 234° |
| 2026-04-18 13:13 | 60.80776 | -70.21764 | 40168 ft | 448 kts | 234° |
| 2026-04-18 13:13 | 60.76623 | -70.31281 | 40166 ft | 449 kts | 234° |
| 2026-04-18 13:14 | 60.72456 | -70.40784 | 40169 ft | 447 kts | 234° |
| 2026-04-18 13:14 | 60.68344 | -70.50131 | 40178 ft | 445 kts | 234° |
| 2026-04-18 13:15 | 60.64200 | -70.59509 | 40177 ft | 445 kts | 234° |
| 2026-04-18 13:15 | 60.60046 | -70.68868 | 40166 ft | 445 kts | 234° |
| 2026-04-18 13:16 | 60.55877 | -70.78223 | 40168 ft | 446 kts | 234° |
| 2026-04-18 13:16 | 60.51705 | -70.87547 | 40173 ft | 445 kts | 234° |
| 2026-04-18 13:17 | 60.48227 | -70.95289 | 40167 ft | 445 kts | 233° |
| 2026-04-18 13:17 | 60.43342 | -71.06119 | 40167 ft | 444 kts | 233° |
| 2026-04-18 13:18 | 60.39872 | -71.13780 | 40166 ft | 442 kts | 233° |
| 2026-04-18 13:18 | 60.35049 | -71.24387 | 40167 ft | 439 kts | 233° |
| 2026-04-18 13:19 | 60.31600 | -71.31944 | 40166 ft | 440 kts | 233° |
| 2026-04-18 13:19 | 60.27440 | -71.41021 | 40163 ft | 440 kts | 233° |
| 2026-04-18 13:20 | 60.23280 | -71.50062 | 40156 ft | 440 kts | 233° |
| 2026-04-18 13:20 | 60.19116 | -71.59076 | 40159 ft | 439 kts | 233° |
| 2026-04-18 13:21 | 60.14955 | -71.68047 | 40157 ft | 438 kts | 233° |
| 2026-04-18 13:21 | 60.10789 | -71.76995 | 40164 ft | 440 kts | 233° |
| 2026-04-18 13:22 | 60.06627 | -71.85896 | 40160 ft | 441 kts | 233° |
| 2026-04-18 13:22 | 60.02420 | -71.94860 | 40155 ft | 441 kts | 233° |
| 2026-04-18 13:23 | 59.97835 | -72.03096 | 40167 ft | 449 kts | 222° |
| 2026-04-18 13:23 | 59.92741 | -72.10367 | 40161 ft | 450 kts | 223° |
| 2026-04-18 13:24 | 59.87645 | -72.17605 | 40149 ft | 450 kts | 222° |
| 2026-04-18 13:24 | 59.82550 | -72.24819 | 40138 ft | 449 kts | 222° |
| 2026-04-18 13:25 | 59.77463 | -72.31992 | 40135 ft | 448 kts | 222° |
| 2026-04-18 13:25 | 59.72417 | -72.39081 | 40129 ft | 447 kts | 222° |
| 2026-04-18 13:26 | 59.67325 | -72.46210 | 40130 ft | 447 kts | 222° |
| 2026-04-18 13:26 | 59.62232 | -72.53310 | 40121 ft | 449 kts | 222° |
| 2026-04-18 13:27 | 59.57114 | -72.60420 | 40121 ft | 450 kts | 222° |
| 2026-04-18 13:27 | 59.51982 | -72.67521 | 40117 ft | 450 kts | 222° |
| 2026-04-18 13:28 | 59.46847 | -72.74598 | 40109 ft | 450 kts | 222° |
| 2026-04-18 13:28 | 59.41715 | -72.81647 | 40102 ft | 449 kts | 221° |
| 2026-04-18 13:29 | 59.36626 | -72.88610 | 40100 ft | 448 kts | 221° |
| 2026-04-18 13:29 | 59.31505 | -72.95590 | 40094 ft | 448 kts | 221° |
| 2026-04-18 13:30 | 59.26382 | -73.02547 | 40088 ft | 447 kts | 221° |
| 2026-04-18 13:30 | 59.21274 | -73.09459 | 40084 ft | 447 kts | 221° |
| 2026-04-18 13:31 | 59.16138 | -73.16382 | 40082 ft | 449 kts | 221° |
| 2026-04-18 13:31 | 59.11027 | -73.23246 | 40072 ft | 449 kts | 221° |
| 2026-04-18 13:32 | 59.05872 | -73.30142 | 40069 ft | 449 kts | 221° |
| 2026-04-18 13:32 | 59.00726 | -73.37001 | 40073 ft | 448 kts | 221° |
| 2026-04-18 13:33 | 58.95586 | -73.43828 | 40056 ft | 447 kts | 221° |
| 2026-04-18 13:33 | 58.90456 | -73.50617 | 40059 ft | 446 kts | 221° |
| 2026-04-18 13:34 | 58.85371 | -73.57320 | 40048 ft | 444 kts | 221° |
| 2026-04-18 13:34 | 58.80263 | -73.64031 | 40044 ft | 444 kts | 221° |
| 2026-04-18 13:35 | 58.75141 | -73.70736 | 40041 ft | 446 kts | 221° |
| 2026-04-18 13:35 | 58.69992 | -73.77450 | 40027 ft | 446 kts | 221° |
| 2026-04-18 13:36 | 58.64849 | -73.84133 | 40016 ft | 445 kts | 221° |
| 2026-04-18 13:36 | 58.59718 | -73.90776 | 40009 ft | 444 kts | 221° |
| 2026-04-18 13:37 | 58.54629 | -73.97342 | 40002 ft | 443 kts | 220° |
| 2026-04-18 13:37 | 58.49514 | -74.03917 | 39993 ft | 442 kts | 220° |
| 2026-04-18 13:38 | 58.44418 | -74.10444 | 39981 ft | 441 kts | 220° |
| 2026-04-18 13:38 | 58.39322 | -74.16950 | 39977 ft | 441 kts | 220° |
| 2026-04-18 13:39 | 58.34202 | -74.23461 | 39971 ft | 442 kts | 220° |
| 2026-04-18 13:39 | 58.29070 | -74.29967 | 39956 ft | 443 kts | 220° |
| 2026-04-18 13:40 | 58.23937 | -74.36446 | 39945 ft | 441 kts | 220° |
| 2026-04-18 13:40 | 58.18862 | -74.42836 | 39925 ft | 440 kts | 220° |
| 2026-04-18 13:41 | 58.13757 | -74.49238 | 39920 ft | 439 kts | 220° |
| 2026-04-18 13:41 | 58.08622 | -74.55655 | 39903 ft | 439 kts | 220° |
| 2026-04-18 13:42 | 58.03548 | -74.61973 | 39891 ft | 439 kts | 220° |
| 2026-04-18 13:42 | 57.98445 | -74.68307 | 39877 ft | 439 kts | 220° |
| 2026-04-18 13:43 | 57.93340 | -74.74621 | 39868 ft | 439 kts | 220° |
| 2026-04-18 13:43 | 57.88235 | -74.80912 | 39855 ft | 438 kts | 220° |
| 2026-04-18 13:44 | 57.83146 | -74.87163 | 39841 ft | 436 kts | 220° |
| 2026-04-18 13:44 | 57.78105 | -74.93333 | 39823 ft | 434 kts | 220° |
| 2026-04-18 13:45 | 57.73049 | -74.99502 | 39810 ft | 433 kts | 220° |
| 2026-04-18 13:45 | 57.67990 | -75.05654 | 39798 ft | 435 kts | 219° |
| 2026-04-18 13:46 | 57.62905 | -75.11814 | 39783 ft | 436 kts | 219° |
| 2026-04-18 13:46 | 57.57824 | -75.17950 | 39768 ft | 435 kts | 219° |
| 2026-04-18 13:47 | 57.52750 | -75.24057 | 39757 ft | 433 kts | 219° |
| 2026-04-18 13:47 | 57.47679 | -75.30139 | 39742 ft | 432 kts | 219° |
| 2026-04-18 13:48 | 57.42655 | -75.36146 | 39728 ft | 431 kts | 219° |
| 2026-04-18 13:48 | 57.37611 | -75.42156 | 39713 ft | 430 kts | 219° |
| 2026-04-18 13:49 | 57.32563 | -75.48152 | 39702 ft | 431 kts | 219° |
| 2026-04-18 13:49 | 57.27540 | -75.54098 | 39687 ft | 431 kts | 219° |
| 2026-04-18 13:50 | 57.22483 | -75.60063 | 39675 ft | 430 kts | 219° |
| 2026-04-18 13:50 | 57.17447 | -75.65984 | 39663 ft | 428 kts | 219° |
| 2026-04-18 13:51 | 57.12424 | -75.71872 | 39659 ft | 427 kts | 219° |
| 2026-04-18 13:51 | 57.07403 | -75.77739 | 39643 ft | 427 kts | 219° |
| 2026-04-18 13:52 | 57.02408 | -75.83555 | 39643 ft | 427 kts | 219° |
| 2026-04-18 13:52 | 56.97385 | -75.89385 | 39625 ft | 426 kts | 219° |
| 2026-04-18 13:53 | 56.92378 | -75.95178 | 39612 ft | 425 kts | 219° |
| 2026-04-18 13:53 | 56.87399 | -76.00921 | 39595 ft | 426 kts | 218° |
| 2026-04-18 13:54 | 56.82371 | -76.06701 | 39586 ft | 427 kts | 218° |
| 2026-04-18 13:54 | 56.77340 | -76.12466 | 39568 ft | 428 kts | 218° |
| 2026-04-18 13:55 | 56.72288 | -76.18237 | 39558 ft | 428 kts | 218° |
| 2026-04-18 13:55 | 56.67250 | -76.23972 | 39540 ft | 427 kts | 218° |
| 2026-04-18 13:56 | 56.62219 | -76.29682 | 39523 ft | 426 kts | 218° |
| 2026-04-18 13:56 | 56.57196 | -76.35365 | 39508 ft | 424 kts | 218° |
| 2026-04-18 13:57 | 56.52221 | -76.40974 | 39499 ft | 422 kts | 218° |
| 2026-04-18 13:57 | 56.47228 | -76.46590 | 39486 ft | 423 kts | 218° |
| 2026-04-18 13:58 | 56.42225 | -76.52195 | 39477 ft | 423 kts | 218° |
| 2026-04-18 13:58 | 56.37210 | -76.57798 | 39468 ft | 423 kts | 218° |
| 2026-04-18 13:59 | 56.32214 | -76.63362 | 39467 ft | 422 kts | 218° |
| 2026-04-18 13:59 | 56.27213 | -76.68915 | 39454 ft | 422 kts | 217° |
| 2026-04-18 14:00 | 56.22214 | -76.74448 | 39449 ft | 422 kts | 217° |
| 2026-04-18 14:00 | 56.17234 | -76.79943 | 39441 ft | 423 kts | 217° |
| 2026-04-18 14:01 | 56.12211 | -76.85468 | 39435 ft | 424 kts | 217° |
| 2026-04-18 14:01 | 56.07169 | -76.90997 | 39429 ft | 425 kts | 217° |
| 2026-04-18 14:02 | 56.02110 | -76.96525 | 39434 ft | 425 kts | 217° |
| 2026-04-18 14:02 | 55.97063 | -77.02026 | 39428 ft | 424 kts | 217° |
| 2026-04-18 14:03 | 55.92026 | -77.07498 | 39406 ft | 423 kts | 217° |
| 2026-04-18 14:03 | 55.87024 | -77.12915 | 39407 ft | 422 kts | 217° |
| 2026-04-18 14:04 | 55.82011 | -77.18328 | 39396 ft | 420 kts | 217° |
| 2026-04-18 14:04 | 55.77018 | -77.23703 | 39388 ft | 418 kts | 217° |
| 2026-04-18 14:05 | 55.72074 | -77.29009 | 39382 ft | 416 kts | 217° |
| 2026-04-18 14:05 | 55.67118 | -77.34313 | 39379 ft | 415 kts | 217° |
| 2026-04-18 14:06 | 55.62171 | -77.39589 | 39375 ft | 414 kts | 217° |
| 2026-04-18 14:06 | 55.57234 | -77.44840 | 39372 ft | 412 kts | 217° |
| 2026-04-18 14:07 | 55.52357 | -77.50012 | 39358 ft | 410 kts | 217° |
| 2026-04-18 14:07 | 55.47469 | -77.55182 | 39349 ft | 409 kts | 217° |
| 2026-04-18 14:08 | 55.40953 | -77.62049 | 39345 ft | 410 kts | 217° |
| 2026-04-18 14:09 | 55.36046 | -77.67202 | 39335 ft | 410 kts | 216° |
| 2026-04-18 14:09 | 55.31158 | -77.72321 | 39336 ft | 409 kts | 216° |
| 2026-04-18 14:10 | 55.26195 | -77.77210 | 39343 ft | 409 kts | 214° |
| 2026-04-18 14:10 | 55.21167 | -77.81859 | 39338 ft | 409 kts | 214° |
| 2026-04-18 14:11 | 55.16125 | -77.86477 | 39339 ft | 409 kts | 214° |
| 2026-04-18 14:11 | 55.11091 | -77.91082 | 39341 ft | 408 kts | 214° |
| 2026-04-18 14:12 | 55.06087 | -77.95646 | 39340 ft | 408 kts | 213° |
| 2026-04-18 14:12 | 55.01042 | -78.00234 | 39343 ft | 408 kts | 213° |
| 2026-04-18 14:13 | 54.96007 | -78.04800 | 39341 ft | 408 kts | 213° |
| 2026-04-18 14:13 | 54.90983 | -78.09342 | 39344 ft | 406 kts | 213° |
| 2026-04-18 14:14 | 54.85970 | -78.13863 | 39339 ft | 405 kts | 213° |
| 2026-04-18 14:14 | 54.81016 | -78.18317 | 39346 ft | 404 kts | 213° |
| 2026-04-18 14:15 | 54.76016 | -78.22801 | 39341 ft | 404 kts | 213° |
| 2026-04-18 14:15 | 54.71029 | -78.27258 | 39336 ft | 402 kts | 213° |
| 2026-04-18 14:16 | 54.66063 | -78.31688 | 39342 ft | 400 kts | 213° |
| 2026-04-18 14:16 | 54.61101 | -78.36100 | 39337 ft | 401 kts | 213° |
| 2026-04-18 14:17 | 54.56170 | -78.40473 | 39336 ft | 402 kts | 213° |
| 2026-04-18 14:17 | 54.48691 | -78.47082 | 39330 ft | 403 kts | 213° |
| 2026-04-18 14:18 | 54.41223 | -78.53653 | 39328 ft | 400 kts | 213° |
| 2026-04-18 14:19 | 54.33809 | -78.60152 | 39327 ft | 397 kts | 212° |
| 2026-04-18 14:20 | 54.26411 | -78.66610 | 39329 ft | 398 kts | 212° |
| 2026-04-18 14:20 | 54.21470 | -78.70909 | 39332 ft | 398 kts | 212° |
| 2026-04-18 14:21 | 54.16553 | -78.75175 | 39329 ft | 399 kts | 212° |
| 2026-04-18 14:21 | 54.11604 | -78.79456 | 39325 ft | 397 kts | 212° |
| 2026-04-18 14:22 | 54.04232 | -78.85814 | 39313 ft | 395 kts | 212° |
| 2026-04-18 14:23 | 53.96857 | -78.92150 | 39309 ft | 397 kts | 212° |
| 2026-04-18 14:23 | 53.89428 | -78.98505 | 39299 ft | 399 kts | 212° |
| 2026-04-18 14:24 | 53.82000 | -79.04833 | 39300 ft | 397 kts | 212° |
| 2026-04-18 14:25 | 53.77096 | -79.08999 | 39298 ft | 396 kts | 211° |
| 2026-04-18 14:25 | 53.72168 | -79.13173 | 39302 ft | 396 kts | 211° |
| 2026-04-18 14:26 | 53.67237 | -79.17339 | 39296 ft | 397 kts | 211° |
| 2026-04-18 14:26 | 53.62292 | -79.21505 | 39295 ft | 398 kts | 211° |
| 2026-04-18 14:27 | 53.57331 | -79.25675 | 39300 ft | 399 kts | 211° |
| 2026-04-18 14:27 | 53.52354 | -79.29845 | 39297 ft | 399 kts | 211° |
| 2026-04-18 14:28 | 53.47390 | -79.33995 | 39298 ft | 398 kts | 211° |
| 2026-04-18 14:28 | 53.42437 | -79.38125 | 39297 ft | 397 kts | 211° |
| 2026-04-18 14:29 | 53.37524 | -79.42210 | 39295 ft | 396 kts | 211° |
| 2026-04-18 14:29 | 53.32582 | -79.46310 | 39299 ft | 397 kts | 211° |
| 2026-04-18 14:30 | 53.27610 | -79.50423 | 39295 ft | 399 kts | 211° |
| 2026-04-18 14:30 | 53.22638 | -79.54524 | 39294 ft | 397 kts | 211° |
| 2026-04-18 14:31 | 53.17690 | -79.58597 | 39288 ft | 397 kts | 210° |
| 2026-04-18 14:31 | 53.12742 | -79.62659 | 39301 ft | 400 kts | 210° |
| 2026-04-18 14:32 | 53.07738 | -79.66755 | 39302 ft | 400 kts | 210° |
| 2026-04-18 14:32 | 53.02740 | -79.70836 | 39292 ft | 399 kts | 210° |
| 2026-04-18 14:33 | 52.97754 | -79.74897 | 39288 ft | 399 kts | 210° |
| 2026-04-18 14:33 | 52.92780 | -79.78937 | 39303 ft | 398 kts | 210° |
| 2026-04-18 14:34 | 52.87795 | -79.82977 | 39285 ft | 399 kts | 210° |
| 2026-04-18 14:34 | 52.82795 | -79.87018 | 39302 ft | 400 kts | 210° |
| 2026-04-18 14:35 | 52.77815 | -79.91033 | 39300 ft | 400 kts | 210° |
| 2026-04-18 14:35 | 52.72812 | -79.95055 | 39298 ft | 400 kts | 210° |
| 2026-04-18 14:36 | 52.67809 | -79.99067 | 39295 ft | 399 kts | 210° |
| 2026-04-18 14:36 | 52.62813 | -80.03065 | 39294 ft | 399 kts | 210° |
| 2026-04-18 14:37 | 52.57807 | -80.07058 | 39291 ft | 399 kts | 210° |
| 2026-04-18 14:37 | 52.52803 | -80.11041 | 39295 ft | 399 kts | 210° |
| 2026-04-18 14:38 | 52.47830 | -80.14988 | 39296 ft | 399 kts | 210° |
| 2026-04-18 14:38 | 52.42830 | -80.18948 | 39298 ft | 399 kts | 210° |
| 2026-04-18 14:39 | 52.37815 | -80.22910 | 39301 ft | 401 kts | 210° |
| 2026-04-18 14:39 | 52.32786 | -80.26871 | 39305 ft | 401 kts | 209° |
| 2026-04-18 14:40 | 52.27742 | -80.30835 | 39304 ft | 402 kts | 209° |
| 2026-04-18 14:40 | 52.22699 | -80.34788 | 39308 ft | 403 kts | 209° |
| 2026-04-18 14:41 | 52.17644 | -80.38740 | 39305 ft | 403 kts | 209° |
| 2026-04-18 14:41 | 52.12614 | -80.42663 | 39304 ft | 403 kts | 209° |
| 2026-04-18 14:42 | 52.07555 | -80.46598 | 39309 ft | 403 kts | 209° |
| 2026-04-18 14:42 | 52.02477 | -80.50538 | 39308 ft | 403 kts | 209° |
| 2026-04-18 14:43 | 51.97412 | -80.54458 | 39310 ft | 403 kts | 209° |
| 2026-04-18 14:43 | 51.92339 | -80.58375 | 39306 ft | 404 kts | 209° |
| 2026-04-18 14:44 | 51.87288 | -80.62265 | 39314 ft | 404 kts | 209° |
| 2026-04-18 14:44 | 51.82214 | -80.66163 | 39308 ft | 404 kts | 209° |
| 2026-04-18 14:45 | 51.77129 | -80.70059 | 39313 ft | 404 kts | 208° |
| 2026-04-18 14:45 | 51.72075 | -80.73922 | 39319 ft | 403 kts | 208° |
| 2026-04-18 14:46 | 51.67005 | -80.77787 | 39318 ft | 403 kts | 208° |
| 2026-04-18 14:46 | 51.61930 | -80.81647 | 39327 ft | 403 kts | 208° |
| 2026-04-18 14:47 | 51.56855 | -80.85498 | 39316 ft | 402 kts | 208° |
| 2026-04-18 14:47 | 51.51794 | -80.89328 | 39316 ft | 402 kts | 208° |
| 2026-04-18 14:48 | 51.46729 | -80.93151 | 39311 ft | 402 kts | 208° |
| 2026-04-18 14:48 | 51.41689 | -80.96947 | 39314 ft | 403 kts | 208° |
| 2026-04-18 14:49 | 51.36606 | -81.00765 | 39320 ft | 403 kts | 208° |
| 2026-04-18 14:49 | 51.31518 | -81.04577 | 39324 ft | 402 kts | 208° |
| 2026-04-18 14:50 | 51.26445 | -81.08370 | 39330 ft | 403 kts | 208° |
| 2026-04-18 14:50 | 51.21351 | -81.12168 | 39338 ft | 403 kts | 208° |
| 2026-04-18 14:51 | 51.16292 | -81.15932 | 39346 ft | 403 kts | 208° |
| 2026-04-18 14:51 | 51.11213 | -81.19701 | 39352 ft | 402 kts | 208° |
| 2026-04-18 14:52 | 51.06133 | -81.23461 | 39356 ft | 402 kts | 208° |
| 2026-04-18 14:52 | 51.01097 | -81.27180 | 39365 ft | 401 kts | 208° |
| 2026-04-18 14:53 | 50.96022 | -81.30919 | 39369 ft | 402 kts | 208° |
| 2026-04-18 14:53 | 50.90934 | -81.34658 | 39373 ft | 404 kts | 208° |
| 2026-04-18 14:54 | 50.85830 | -81.38400 | 39376 ft | 404 kts | 208° |
| 2026-04-18 14:54 | 50.80765 | -81.42104 | 39382 ft | 403 kts | 207° |
| 2026-04-18 14:55 | 50.75666 | -81.45825 | 39390 ft | 404 kts | 207° |
| 2026-04-18 14:55 | 50.70548 | -81.49549 | 39388 ft | 404 kts | 207° |
| 2026-04-18 14:56 | 50.65457 | -81.53246 | 39391 ft | 402 kts | 207° |
| 2026-04-18 14:56 | 50.60362 | -81.56937 | 39400 ft | 403 kts | 207° |
| 2026-04-18 14:57 | 50.55295 | -81.60598 | 39400 ft | 402 kts | 207° |
| 2026-04-18 14:57 | 50.51030 | -81.63674 | 39400 ft | 402 kts | 207° |
| 2026-04-18 14:58 | 50.45940 | -81.67336 | 39404 ft | 403 kts | 207° |
| 2026-04-18 14:58 | 50.40878 | -81.70969 | 39417 ft | 402 kts | 207° |
| 2026-04-18 14:59 | 50.35795 | -81.74609 | 39420 ft | 402 kts | 207° |
| 2026-04-18 14:59 | 50.30724 | -81.78231 | 39423 ft | 401 kts | 207° |
| 2026-04-18 15:00 | 50.25645 | -81.81851 | 39430 ft | 401 kts | 207° |
| 2026-04-18 15:00 | 50.20555 | -81.85470 | 39429 ft | 403 kts | 207° |
| 2026-04-18 15:01 | 50.15445 | -81.89095 | 39430 ft | 404 kts | 207° |
| 2026-04-18 15:01 | 50.10322 | -81.92720 | 39432 ft | 404 kts | 207° |
| 2026-04-18 15:02 | 50.05193 | -81.96341 | 39439 ft | 405 kts | 206° |
| 2026-04-18 15:02 | 50.00064 | -81.99954 | 39444 ft | 404 kts | 206° |
| 2026-04-18 15:03 | 49.94962 | -82.03508 | 39439 ft | 404 kts | 206° |
| 2026-04-18 15:03 | 49.89826 | -82.07074 | 39444 ft | 404 kts | 206° |
| 2026-04-18 15:04 | 49.84702 | -82.10627 | 39448 ft | 404 kts | 206° |
| 2026-04-18 15:04 | 49.79565 | -82.14178 | 39448 ft | 404 kts | 206° |
| 2026-04-18 15:05 | 49.74416 | -82.17731 | 39453 ft | 405 kts | 206° |
| 2026-04-18 15:05 | 49.69288 | -82.21260 | 39453 ft | 407 kts | 206° |
| 2026-04-18 15:06 | 49.64108 | -82.24816 | 39448 ft | 407 kts | 206° |
| 2026-04-18 15:06 | 49.58923 | -82.28368 | 39443 ft | 406 kts | 206° |
| 2026-04-18 15:07 | 49.53768 | -82.31891 | 39438 ft | 405 kts | 206° |
| 2026-04-18 15:07 | 49.48597 | -82.35417 | 39432 ft | 407 kts | 206° |
| 2026-04-18 15:08 | 49.43414 | -82.38942 | 39433 ft | 407 kts | 206° |
| 2026-04-18 15:08 | 49.38256 | -82.42443 | 39432 ft | 408 kts | 206° |
| 2026-04-18 15:09 | 49.33054 | -82.45966 | 39439 ft | 408 kts | 206° |
| 2026-04-18 15:09 | 49.27852 | -82.49481 | 39444 ft | 408 kts | 206° |
| 2026-04-18 15:10 | 49.22652 | -82.52985 | 39441 ft | 409 kts | 206° |
| 2026-04-18 15:10 | 49.17440 | -82.56490 | 39444 ft | 409 kts | 206° |
| 2026-04-18 15:11 | 49.12228 | -82.59987 | 39462 ft | 409 kts | 206° |
| 2026-04-18 15:11 | 49.07012 | -82.63478 | 39467 ft | 409 kts | 206° |
| 2026-04-18 15:12 | 49.01797 | -82.66961 | 39470 ft | 409 kts | 206° |
| 2026-04-18 15:12 | 48.96614 | -82.70414 | 39475 ft | 409 kts | 206° |
| 2026-04-18 15:13 | 48.91409 | -82.73874 | 39478 ft | 409 kts | 206° |
| 2026-04-18 15:13 | 48.86199 | -82.77329 | 39475 ft | 408 kts | 206° |
| 2026-04-18 15:14 | 48.80986 | -82.80779 | 39517 ft | 408 kts | 206° |
| 2026-04-18 15:14 | 48.75778 | -82.84218 | 39517 ft | 408 kts | 206° |
| 2026-04-18 15:15 | 48.67943 | -82.89376 | 39521 ft | 410 kts | 206° |
| 2026-04-18 15:15 | 48.62737 | -82.92794 | 39519 ft | 411 kts | 206° |
| 2026-04-18 15:16 | 48.57477 | -82.96239 | 39526 ft | 411 kts | 206° |
| 2026-04-18 15:16 | 48.52212 | -82.99680 | 39529 ft | 412 kts | 206° |
| 2026-04-18 15:17 | 48.46951 | -83.03110 | 39529 ft | 412 kts | 206° |
| 2026-04-18 15:17 | 48.41679 | -83.06540 | 39534 ft | 412 kts | 206° |
| 2026-04-18 15:18 | 48.36448 | -83.09935 | 39533 ft | 412 kts | 206° |
| 2026-04-18 15:18 | 48.31178 | -83.13348 | 39535 ft | 412 kts | 206° |
| 2026-04-18 15:19 | 48.25908 | -83.16754 | 39544 ft | 412 kts | 206° |
| 2026-04-18 15:19 | 48.20637 | -83.20152 | 39550 ft | 412 kts | 206° |
| 2026-04-18 15:20 | 48.15365 | -83.23543 | 39550 ft | 412 kts | 206° |
| 2026-04-18 15:20 | 48.10096 | -83.26925 | 39552 ft | 412 kts | 206° |
| 2026-04-18 15:21 | 48.04829 | -83.30298 | 39548 ft | 411 kts | 206° |
| 2026-04-18 15:21 | 47.99568 | -83.33659 | 39547 ft | 411 kts | 206° |
| 2026-04-18 15:22 | 47.94340 | -83.36993 | 39543 ft | 411 kts | 206° |
| 2026-04-18 15:22 | 47.89080 | -83.40339 | 39538 ft | 411 kts | 206° |
| 2026-04-18 15:23 | 47.83823 | -83.43676 | 39539 ft | 411 kts | 206° |
| 2026-04-18 15:23 | 47.78553 | -83.47013 | 39533 ft | 412 kts | 206° |
| 2026-04-18 15:24 | 47.73278 | -83.50347 | 39544 ft | 412 kts | 206° |
| 2026-04-18 15:24 | 47.67986 | -83.53683 | 39556 ft | 413 kts | 206° |
| 2026-04-18 15:25 | 47.62728 | -83.56992 | 39572 ft | 413 kts | 206° |
| 2026-04-18 15:25 | 47.57433 | -83.60316 | 39593 ft | 413 kts | 206° |
| 2026-04-18 15:26 | 47.52137 | -83.63633 | 39603 ft | 412 kts | 206° |
| 2026-04-18 15:26 | 47.46857 | -83.66933 | 39609 ft | 411 kts | 206° |
| 2026-04-18 15:27 | 47.41612 | -83.70204 | 39613 ft | 411 kts | 206° |
| 2026-04-18 15:27 | 47.36345 | -83.73482 | 39617 ft | 410 kts | 206° |
| 2026-04-18 15:28 | 47.31096 | -83.76741 | 39618 ft | 409 kts | 206° |
| 2026-04-18 15:28 | 47.25839 | -83.79998 | 39632 ft | 410 kts | 206° |
| 2026-04-18 15:29 | 47.20557 | -83.83264 | 39642 ft | 412 kts | 206° |
| 2026-04-18 15:29 | 47.15259 | -83.86532 | 39647 ft | 414 kts | 206° |
| 2026-04-18 15:30 | 47.09957 | -83.89796 | 39652 ft | 412 kts | 206° |
| 2026-04-18 15:30 | 47.04666 | -83.93046 | 39651 ft | 411 kts | 206° |
| 2026-04-18 15:31 | 46.99431 | -83.96255 | 39652 ft | 410 kts | 206° |
| 2026-04-18 15:31 | 46.94166 | -83.99476 | 39649 ft | 410 kts | 206° |
| 2026-04-18 15:32 | 46.88881 | -84.02701 | 39657 ft | 411 kts | 206° |
| 2026-04-18 15:32 | 46.83594 | -84.05921 | 39655 ft | 411 kts | 206° |
| 2026-04-18 15:33 | 46.78301 | -84.09137 | 39659 ft | 411 kts | 206° |
| 2026-04-18 15:33 | 46.73048 | -84.12323 | 39665 ft | 411 kts | 206° |
| 2026-04-18 15:34 | 46.67771 | -84.15516 | 39675 ft | 410 kts | 206° |
| 2026-04-18 15:34 | 46.62492 | -84.18704 | 39677 ft | 411 kts | 206° |
| 2026-04-18 15:35 | 46.57187 | -84.21901 | 39682 ft | 413 kts | 206° |
| 2026-04-18 15:35 | 46.51863 | -84.25101 | 39689 ft | 413 kts | 206° |
| 2026-04-18 15:36 | 46.46585 | -84.28268 | 39686 ft | 413 kts | 206° |
| 2026-04-18 15:36 | 46.41253 | -84.31361 | 39695 ft | 414 kts | 201° |
| 2026-04-18 15:37 | 46.35636 | -84.33416 | 39699 ft | 416 kts | 199° |
| 2026-04-18 15:37 | 46.30004 | -84.35382 | 39712 ft | 416 kts | 199° |
| 2026-04-18 15:38 | 46.24365 | -84.37328 | 39708 ft | 416 kts | 199° |
| 2026-04-18 15:38 | 46.18728 | -84.39278 | 39703 ft | 416 kts | 199° |
| 2026-04-18 15:39 | 46.13098 | -84.41216 | 39705 ft | 416 kts | 199° |
| 2026-04-18 15:39 | 46.07465 | -84.43155 | 39706 ft | 415 kts | 199° |
| 2026-04-18 15:40 | 46.01838 | -84.45085 | 39720 ft | 415 kts | 199° |
| 2026-04-18 15:40 | 45.96266 | -84.46994 | 39726 ft | 415 kts | 199° |
| 2026-04-18 15:41 | 45.90638 | -84.48918 | 39729 ft | 415 kts | 199° |
| 2026-04-18 15:41 | 45.85003 | -84.50841 | 39733 ft | 417 kts | 199° |
| 2026-04-18 15:42 | 45.79345 | -84.52766 | 39731 ft | 419 kts | 199° |
| 2026-04-18 15:42 | 45.73654 | -84.54699 | 39752 ft | 420 kts | 199° |
| 2026-04-18 15:43 | 45.67985 | -84.56619 | 39752 ft | 418 kts | 199° |
| 2026-04-18 15:43 | 45.62328 | -84.58534 | 39747 ft | 417 kts | 199° |
| 2026-04-18 15:44 | 45.56723 | -84.60425 | 39751 ft | 416 kts | 199° |
| 2026-04-18 15:44 | 45.51078 | -84.62328 | 39751 ft | 418 kts | 199° |
| 2026-04-18 15:45 | 45.45400 | -84.64236 | 39750 ft | 419 kts | 199° |
| 2026-04-18 15:45 | 45.39724 | -84.66141 | 39752 ft | 420 kts | 199° |
| 2026-04-18 15:46 | 45.34988 | -84.67725 | 39747 ft | 419 kts | 199° |
| 2026-04-18 15:46 | 45.29327 | -84.69617 | 39748 ft | 417 kts | 199° |
| 2026-04-18 15:47 | 45.23679 | -84.71501 | 39764 ft | 416 kts | 199° |
| 2026-04-18 15:47 | 45.18031 | -84.73382 | 39764 ft | 417 kts | 199° |
| 2026-04-18 15:48 | 45.12376 | -84.75260 | 39733 ft | 418 kts | 199° |
| 2026-04-18 15:48 | 45.06742 | -84.77128 | 39746 ft | 419 kts | 199° |
| 2026-04-18 15:49 | 45.01059 | -84.79009 | 39733 ft | 420 kts | 199° |
| 2026-04-18 15:49 | 44.95345 | -84.80895 | 39731 ft | 420 kts | 199° |
| 2026-04-18 15:50 | 44.89659 | -84.82768 | 39728 ft | 418 kts | 199° |
| 2026-04-18 15:50 | 44.84001 | -84.84629 | 39735 ft | 417 kts | 199° |
| 2026-04-18 15:51 | 44.78377 | -84.86475 | 39741 ft | 417 kts | 199° |
| 2026-04-18 15:51 | 44.72724 | -84.88326 | 39737 ft | 417 kts | 199° |
| 2026-04-18 15:52 | 44.67068 | -84.90175 | 39741 ft | 417 kts | 199° |
| 2026-04-18 15:52 | 44.61415 | -84.92019 | 39738 ft | 417 kts | 199° |
| 2026-04-18 15:53 | 44.55766 | -84.93859 | 39744 ft | 417 kts | 199° |
| 2026-04-18 15:53 | 44.50102 | -84.95699 | 39746 ft | 418 kts | 199° |
| 2026-04-18 15:54 | 44.44471 | -84.97525 | 39743 ft | 417 kts | 199° |
| 2026-04-18 15:54 | 44.38809 | -84.99358 | 39742 ft | 417 kts | 199° |
| 2026-04-18 15:55 | 44.33148 | -85.01186 | 39744 ft | 417 kts | 199° |
| 2026-04-18 15:55 | 44.27493 | -85.03009 | 39741 ft | 417 kts | 199° |
| 2026-04-18 15:56 | 44.21831 | -85.04831 | 39752 ft | 418 kts | 199° |
| 2026-04-18 15:56 | 44.16154 | -85.06653 | 39750 ft | 419 kts | 199° |
| 2026-04-18 15:57 | 44.10464 | -85.08477 | 39748 ft | 420 kts | 199° |
| 2026-04-18 15:57 | 44.04797 | -85.10289 | 39746 ft | 421 kts | 199° |
| 2026-04-18 15:58 | 43.99102 | -85.12103 | 39745 ft | 419 kts | 199° |
| 2026-04-18 15:58 | 43.93425 | -85.13911 | 39743 ft | 418 kts | 199° |
| 2026-04-18 15:59 | 43.87762 | -85.15710 | 39758 ft | 418 kts | 199° |
| 2026-04-18 15:59 | 43.82077 | -85.17513 | 39771 ft | 419 kts | 199° |
| 2026-04-18 16:00 | 43.76375 | -85.19317 | 39776 ft | 421 kts | 199° |
| 2026-04-18 16:00 | 43.70651 | -85.21124 | 39781 ft | 421 kts | 199° |
| 2026-04-18 16:01 | 43.64989 | -85.22909 | 39781 ft | 419 kts | 199° |
| 2026-04-18 16:01 | 43.59298 | -85.24700 | 39785 ft | 418 kts | 199° |
| 2026-04-18 16:02 | 43.53635 | -85.26480 | 39777 ft | 418 kts | 199° |